Observation data for Hobbs on 12/13/2019      Previous  Date       Current Mesonet Observations  Soil Data  Daily Summary Page  Observations in Plain Language
KHO1 130600Z 26008KT 09/01 A3005 RMK A01 T00890005  RH  056%=      5-min Rain = 0
KHO1 130601Z 26008KT 09/01 A3005 RMK A01 T00900005  RH  055%=      5-min Rain = 0
KHO1 130602Z 26007KT 09/01 A3005 RMK A01 T00900005  RH  055%=      5-min Rain = 0
KHO1 130603Z 26008KT 09/01 A3005 RMK A01 T00900005  RH  055%=      5-min Rain = 0
KHO1 130604Z 26008KT 09/01 A3005 RMK A01 T00910005  RH  055%=      5-min Rain = 0
KHO1 130605Z 26008KT 09/01 A3005 RMK A01 T00910005  RH  055%=      5-min Rain = 0
KHO1 130606Z 26008KT 09/01 A3005 RMK A01 T00910005  RH  055%=      5-min Rain = 0
KHO1 130607Z 26007KT 09/01 A3005 RMK A01 T00920005  RH  054%=      5-min Rain = 0
KHO1 130608Z 26008KT 09/00 A3005 RMK A01 T00910004  RH  054%=      5-min Rain = 0
KHO1 130609Z 25007KT 09/00 A3005 RMK A01 T00910004  RH  054%=      5-min Rain = 0
KHO1 130610Z 25008KT 09/00 A3005 RMK A01 T00910004  RH  055%=      5-min Rain = 0
KHO1 130611Z 25009KT 09/00 A3005 RMK A01 T00910004  RH  054%=      5-min Rain = 0
KHO1 130612Z 26008KT 09/00 A3005 RMK A01 T00910004  RH  054%=      5-min Rain = 0
KHO1 130613Z 25008KT 09/00 A3004 RMK A01 T00910004  RH  054%=      5-min Rain = 0
KHO1 130614Z 26008KT 09/00 A3005 RMK A01 T00910004  RH  055%=      5-min Rain = 0
KHO1 130615Z 26007KT 09/00 A3005 RMK A01 T00900004  RH  055%=      5-min Rain = 0
KHO1 130616Z 26007KT 09/00 A3005 RMK A01 T00900004  RH  055%=      5-min Rain = 0
KHO1 130617Z 26007KT 09/00 A3005 RMK A01 T00900004  RH  055%=      5-min Rain = 0
KHO1 130618Z 26006KT 09/00 A3005 RMK A01 T00900004  RH  055%=      5-min Rain = 0
KHO1 130619Z 25006KT 09/00 A3005 RMK A01 T00900003  RH  055%=      5-min Rain = 0
KHO1 130620Z 25006KT 09/00 A3005 RMK A01 T00900004  RH  055%=      5-min Rain = 0
KHO1 130621Z 26006KT 09/00 A3004 RMK A01 T00900003  RH  055%=      5-min Rain = 0
KHO1 130622Z 25005KT 09/00 A3004 RMK A01 T00890003  RH  055%=      5-min Rain = 0
KHO1 130623Z 26006KT 09/00 A3004 RMK A01 T00900003  RH  055%=      5-min Rain = 0
KHO1 130624Z 25005KT 09/00 A3004 RMK A01 T00890003  RH  055%=      5-min Rain = 0
KHO1 130625Z 25005KT 09/00 A3004 RMK A01 T00900003  RH  055%=      5-min Rain = 0
KHO1 130626Z 25005KT 09/00 A3004 RMK A01 T00890003  RH  055%=      5-min Rain = 0
KHO1 130627Z 26005KT 09/00 A3004 RMK A01 T00880003  RH  055%=      5-min Rain = 0
KHO1 130628Z 25005KT 09/00 A3004 RMK A01 T00880003  RH  055%=      5-min Rain = 0
KHO1 130629Z 25006KT 09/00 A3004 RMK A01 T00870003  RH  056%=      5-min Rain = 0
KHO1 130630Z 25005KT 09/00 A3004 RMK A01 T00860003  RH  056%=      5-min Rain = 0
KHO1 130631Z 25005KT 09/00 A3004 RMK A01 T00860003  RH  056%=      5-min Rain = 0
KHO1 130632Z 25005KT 09/00 A3004 RMK A01 T00850003  RH  056%=      5-min Rain = 0
KHO1 130633Z 26005KT 09/00 A3004 RMK A01 T00850003  RH  056%=      5-min Rain = 0
KHO1 130634Z 26005KT 09/00 A3004 RMK A01 T00850003  RH  056%=      5-min Rain = 0
KHO1 130635Z 27005KT 09/00 A3004 RMK A01 T00850003  RH  056%=      5-min Rain = 0
KHO1 130636Z 26005KT 09/00 A3004 RMK A01 T00850003  RH  057%=      5-min Rain = 0
KHO1 130637Z 26004KT 09/00 A3004 RMK A01 T00850003  RH  057%=      5-min Rain = 0
KHO1 130638Z 26004KT 09/00 A3004 RMK A01 T00850003  RH  057%=      5-min Rain = 0
KHO1 130639Z 27004KT 09/00 A3004 RMK A01 T00850003  RH  057%=      5-min Rain = 0
KHO1 130640Z 26004KT 08/00 A3004 RMK A01 T00840003  RH  057%=      5-min Rain = 0
KHO1 130641Z 26004KT 08/00 A3004 RMK A01 T00840003  RH  057%=      5-min Rain = 0
KHO1 130642Z 27005KT 09/00 A3004 RMK A01 T00850003  RH  057%=      5-min Rain = 0
KHO1 130643Z 28003KT 09/00 A3004 RMK A01 T00850003  RH  057%=      5-min Rain = 0
KHO1 130644Z 27003KT 09/00 A3004 RMK A01 T00850003  RH  057%=      5-min Rain = 0
KHO1 130645Z 28005KT 09/00 A3004 RMK A01 T00850003  RH  057%=      5-min Rain = 0
KHO1 130646Z 29004KT 09/00 A3004 RMK A01 T00850004  RH  057%=      5-min Rain = 0
KHO1 130647Z 28004KT 09/00 A3004 RMK A01 T00850004  RH  057%=      5-min Rain = 0
KHO1 130648Z 29005KT 08/00 A3004 RMK A01 T00840004  RH  057%=      5-min Rain = 0
KHO1 130649Z 29006KT 09/00 A3004 RMK A01 T00850004  RH  057%=      5-min Rain = 0
KHO1 130650Z 29006KT 09/00 A3003 RMK A01 T00860004  RH  056%=      5-min Rain = 0
KHO1 130651Z 28007KT 09/00 A3003 RMK A01 T00880004  RH  055%=      5-min Rain = 0
KHO1 130652Z 29007KT 09/00 A3003 RMK A01 T00900004  RH  055%=      5-min Rain = 0
KHO1 130653Z 29010KT 09/00 A3003 RMK A01 T00920003  RH  054%=      5-min Rain = 0
KHO1 130654Z 28007KT 09/00 A3003 RMK A01 T00940003  RH  053%=      5-min Rain = 0
KHO1 130655Z 28007KT 10/00 A3003 RMK A01 T00950003  RH  053%=      5-min Rain = 0
KHO1 130656Z 29008KT 10/00 A3003 RMK A01 T00950003  RH  053%=      5-min Rain = 0
KHO1 130657Z 29008KT 10/00 A3003 RMK A01 T00950003  RH  052%=      5-min Rain = 0
KHO1 130658Z 29007KT 10/00 A3004 RMK A01 T00950003  RH  052%=      5-min Rain = 0
KHO1 130659Z 29008KT 10/00 A3003 RMK A01 T00950003  RH  052%=      5-min Rain = 0
KHO1 130700Z 29009KT 10/00 A3003 RMK A01 T00960003  RH  052%=      5-min Rain = 0
KHO1 130701Z 28009KT 10/00 A3003 RMK A01 T00960002  RH  052%=      5-min Rain = 0
KHO1 130702Z 29008KT 10/00 A3003 RMK A01 T00970002  RH  052%=      5-min Rain = 0
KHO1 130703Z 29009KT 10/00 A3003 RMK A01 T00970002  RH  052%=      5-min Rain = 0
KHO1 130704Z 29009KT 10/00 A3003 RMK A01 T00960002  RH  052%=      5-min Rain = 0
KHO1 130705Z 29010KT 10/00 A3003 RMK A01 T00970002  RH  052%=      5-min Rain = 0
KHO1 130706Z 29009KT 10/00 A3003 RMK A01 T00970002  RH  051%=      5-min Rain = 0
KHO1 130707Z 29009KT 10/00 A3003 RMK A01 T00970002  RH  051%=      5-min Rain = 0
KHO1 130708Z 29010KT 10/00 A3003 RMK A01 T00980001  RH  051%=      5-min Rain = 0
KHO1 130709Z 29009KT 10/00 A3003 RMK A01 T00980002  RH  051%=      5-min Rain = 0
KHO1 130710Z 29010KT 10/00 A3003 RMK A01 T00990002  RH  051%=      5-min Rain = 0
KHO1 130711Z 29011KT 10/00 A3003 RMK A01 T00990001  RH  050%=      5-min Rain = 0
KHO1 130712Z 29010KT 10/00 A3003 RMK A01 T01000002  RH  051%=      5-min Rain = 0
KHO1 130713Z 30010KT 10/00 A3003 RMK A01 T00990002  RH  051%=      5-min Rain = 0
KHO1 130714Z 30010KT 10/00 A3003 RMK A01 T00990002  RH  051%=      5-min Rain = 0
KHO1 130715Z 29012KT 10/00 A3003 RMK A01 T00990001  RH  050%=      5-min Rain = 0
KHO1 130716Z 29010KT 10/00 A3003 RMK A01 T01000001  RH  050%=      5-min Rain = 0
KHO1 130717Z 30011KT 10/00 A3003 RMK A01 T01000001  RH  050%=      5-min Rain = 0
KHO1 130718Z 29010KT 10/00 A3003 RMK A01 T01000001  RH  050%=      5-min Rain = 0
KHO1 130719Z 29011KT 10/00 A3003 RMK A01 T01000000  RH  050%=      5-min Rain = 0
KHO1 130720Z 29010KT 10/00 A3003 RMK A01 T01000000  RH  050%=      5-min Rain = 0
KHO1 130721Z 29010G15KT 10/00 A3003 RMK A01 T01010001  RH  050%=      5-min Rain = 0
KHO1 130722Z 29012KT 10/00 A3003 RMK A01 T01000000  RH  050%=      5-min Rain = 0
KHO1 130723Z 29011KT 10/00 A3003 RMK A01 T01000000  RH  050%=      5-min Rain = 0
KHO1 130724Z 29011KT 10/00 A3003 RMK A01 T01000000  RH  050%=      5-min Rain = 0
KHO1 130725Z 30011KT 10/00 A3003 RMK A01 T01000000  RH  050%=      5-min Rain = 0
KHO1 130726Z 30010KT 10/00 A3003 RMK A01 T01000000  RH  050%=      5-min Rain = 0
KHO1 130727Z 29010KT 10/00 A3003 RMK A01 T010000-0  RH  050%=      5-min Rain = 0
KHO1 130728Z 30011KT 10/00 A3003 RMK A01 T009900-0  RH  050%=      5-min Rain = 0
KHO1 130729Z 30010KT 10/00 A3003 RMK A01 T00990000  RH  050%=      5-min Rain = 0
KHO1 130730Z 30011KT 10/00 A3003 RMK A01 T00980000  RH  051%=      5-min Rain = 0
KHO1 130731Z 30010KT 10/00 A3003 RMK A01 T00980000  RH  051%=      5-min Rain = 0
KHO1 130732Z 30010KT 10/00 A3003 RMK A01 T00970000  RH  051%=      5-min Rain = 0
KHO1 130733Z 30010KT 10/00 A3003 RMK A01 T009700-0  RH  051%=      5-min Rain = 0
KHO1 130734Z 30012KT 10/00 A3003 RMK A01 T009700-0  RH  051%=      5-min Rain = 0
KHO1 130735Z 30010KT 10/00 A3003 RMK A01 T00970000  RH  051%=      5-min Rain = 0
KHO1 130736Z 30010KT 10/00 A3003 RMK A01 T009700-0  RH  051%=      5-min Rain = 0
KHO1 130737Z 30012KT 10/00 A3003 RMK A01 T00970000  RH  051%=      5-min Rain = 0
KHO1 130738Z 30010KT 10/00 A3003 RMK A01 T00970000  RH  051%=      5-min Rain = 0
KHO1 130739Z 30010KT 10/00 A3003 RMK A01 T00960001  RH  051%=      5-min Rain = 0
KHO1 130740Z 30011KT 10/00 A3003 RMK A01 T00960001  RH  051%=      5-min Rain = 0
KHO1 130741Z 31010KT 10/00 A3003 RMK A01 T00960001  RH  052%=      5-min Rain = 0
KHO1 130742Z 30011KT 10/00 A3003 RMK A01 T00950001  RH  052%=      5-min Rain = 0
KHO1 130743Z 30011KT 10/00 A3003 RMK A01 T00960001  RH  052%=      5-min Rain = 0
KHO1 130744Z 30013KT 10/00 A3003 RMK A01 T00960001  RH  051%=      5-min Rain = 0
KHO1 130745Z 30011KT 10/00 A3003 RMK A01 T00970001  RH  051%=      5-min Rain = 0
KHO1 130746Z 29011KT 10/00 A3003 RMK A01 T00970001  RH  051%=      5-min Rain = 0
KHO1 130747Z 30013KT 10/00 A3003 RMK A01 T00970001  RH  051%=      5-min Rain = 0
KHO1 130748Z 29012KT 10/00 A3003 RMK A01 T00970001  RH  051%=      5-min Rain = 0
KHO1 130749Z 29013KT 10/00 A3003 RMK A01 T00970001  RH  051%=      5-min Rain = 0
KHO1 130750Z 29014KT 10/00 A3003 RMK A01 T00980000  RH  051%=      5-min Rain = 0
KHO1 130751Z 29013KT 10/00 A3003 RMK A01 T00980000  RH  051%=      5-min Rain = 0
KHO1 130752Z 30014KT 10/00 A3004 RMK A01 T00990000  RH  050%=      5-min Rain = 0
KHO1 130753Z 29015KT 10/00 A3004 RMK A01 T00990000  RH  050%=      5-min Rain = 0
KHO1 130754Z 29014KT 10/00 A3004 RMK A01 T00990000  RH  050%=      5-min Rain = 0
KHO1 130755Z 29014KT 10/00 A3004 RMK A01 T00990000  RH  050%=      5-min Rain = 0
KHO1 130756Z 29014KT 10/00 A3003 RMK A01 T00990000  RH  050%=      5-min Rain = 0
KHO1 130757Z 29014KT 10/00 A3003 RMK A01 T00980000  RH  050%=      5-min Rain = 0
KHO1 130758Z 29013KT 10/00 A3004 RMK A01 T00980001  RH  051%=      5-min Rain = 0
KHO1 130759Z 29014KT 10/00 A3004 RMK A01 T00980000  RH  051%=      5-min Rain = 0
KHO1 130800Z 29014KT 10/00 A3003 RMK A01 T00980000  RH  051%=      5-min Rain = 0
KHO1 130801Z 29013KT 10/00 A3003 RMK A01 T00980001  RH  051%=      5-min Rain = 0
KHO1 130802Z 29012KT 10/00 A3003 RMK A01 T00970000  RH  051%=      5-min Rain = 0
KHO1 130803Z 29013KT 10/00 A3003 RMK A01 T00970000  RH  051%=      5-min Rain = 0
KHO1 130804Z 28014KT 10/00 A3003 RMK A01 T00970000  RH  051%=      5-min Rain = 0
KHO1 130805Z 29014KT 10/00 A3003 RMK A01 T009800-0  RH  050%=      5-min Rain = 0
KHO1 130806Z 29014G19KT 10/00 A3003 RMK A01 T009800-0  RH  050%=      5-min Rain = 0
KHO1 130807Z 29013KT 10/00 A3003 RMK A01 T009800-0  RH  050%=      5-min Rain = 0
KHO1 130808Z 28014KT 10/M00 A3003 RMK A01 T00981001  RH  050%=      5-min Rain = 0
KHO1 130809Z 29013KT 10/00 A3003 RMK A01 T009800-0  RH  050%=      5-min Rain = 0
KHO1 130810Z 29012KT 10/00 A3003 RMK A01 T009800-0  RH  050%=      5-min Rain = 0
KHO1 130811Z 29012KT 10/00 A3003 RMK A01 T009700-0  RH  051%=      5-min Rain = 0
KHO1 130812Z 29011KT 10/00 A3003 RMK A01 T009600-0  RH  051%=      5-min Rain = 0
KHO1 130813Z 29014G19KT 10/M00 A3003 RMK A01 T00961001  RH  051%=      5-min Rain = 0
KHO1 130814Z 29011KT 10/00 A3003 RMK A01 T009600-0  RH  051%=      5-min Rain = 0
KHO1 130815Z 29012KT 10/00 A3003 RMK A01 T009600-0  RH  051%=      5-min Rain = 0
KHO1 130816Z 29013KT 10/M00 A3003 RMK A01 T00961001  RH  051%=      5-min Rain = 0
KHO1 130817Z 30013KT 10/M00 A3003 RMK A01 T00961001  RH  051%=      5-min Rain = 0
KHO1 130818Z 29011G16KT 10/M00 A3003 RMK A01 T00961001  RH  051%=      5-min Rain = 0
KHO1 130819Z 29013KT 10/M00 A3004 RMK A01 T00961001  RH  051%=      5-min Rain = 0
KHO1 130820Z 29014KT 10/M00 A3004 RMK A01 T00971002  RH  050%=      5-min Rain = 0
KHO1 130821Z 30013KT 10/M00 A3004 RMK A01 T00971001  RH  050%=      5-min Rain = 0
KHO1 130822Z 30013KT 10/M00 A3004 RMK A01 T00971002  RH  050%=      5-min Rain = 0
KHO1 130823Z 29013G19KT 10/M00 A3004 RMK A01 T00971002  RH  050%=      5-min Rain = 0
KHO1 130824Z 30012KT 10/M00 A3004 RMK A01 T00981002  RH  050%=      5-min Rain = 0
KHO1 130825Z 29013KT 10/M00 A3004 RMK A01 T00971001  RH  050%=      5-min Rain = 0
KHO1 130826Z 29013KT 10/M00 A3004 RMK A01 T00971002  RH  050%=      5-min Rain = 0
KHO1 130827Z 29014KT 10/M00 A3004 RMK A01 T00971002  RH  050%=      5-min Rain = 0
KHO1 130828Z 29013KT 10/M00 A3004 RMK A01 T00971003  RH  050%=      5-min Rain = 0
KHO1 130829Z 29014KT 10/M00 A3004 RMK A01 T00981002  RH  050%=      5-min Rain = 0
KHO1 130830Z 29014KT 10/M00 A3004 RMK A01 T00981003  RH  050%=      5-min Rain = 0
KHO1 130831Z 29014KT 10/M00 A3004 RMK A01 T00981003  RH  049%=      5-min Rain = 0
KHO1 130832Z 29017KT 10/M00 A3003 RMK A01 T00991004  RH  049%=      5-min Rain = 0
KHO1 130833Z 29014KT 10/M00 A3003 RMK A01 T01001004  RH  048%=      5-min Rain = 0
KHO1 130834Z 29015G21KT 10/M00 A3003 RMK A01 T01001004  RH  048%=      5-min Rain = 0
KHO1 130835Z 29014KT 10/M00 A3003 RMK A01 T01011004  RH  048%=      5-min Rain = 0
KHO1 130836Z 29015KT 10/M00 A3004 RMK A01 T01001004  RH  048%=      5-min Rain = 0
KHO1 130837Z 29014KT 10/M00 A3004 RMK A01 T01001004  RH  048%=      5-min Rain = 0
KHO1 130838Z 29013KT 10/M00 A3004 RMK A01 T01001004  RH  048%=      5-min Rain = 0
KHO1 130839Z 29014KT 10/M00 A3003 RMK A01 T01001004  RH  048%=      5-min Rain = 0
KHO1 130840Z 29014KT 10/M00 A3004 RMK A01 T01011004  RH  048%=      5-min Rain = 0
KHO1 130841Z 29014KT 10/M01 A3004 RMK A01 T01011005  RH  048%=      5-min Rain = 0
KHO1 130842Z 29013KT 10/M00 A3004 RMK A01 T01011004  RH  048%=      5-min Rain = 0
KHO1 130843Z 29015KT 10/M01 A3004 RMK A01 T01001005  RH  048%=      5-min Rain = 0
KHO1 130844Z 29015KT 10/M01 A3003 RMK A01 T01001005  RH  048%=      5-min Rain = 0
KHO1 130845Z 29016KT 10/M01 A3003 RMK A01 T01011006  RH  048%=      5-min Rain = 0
KHO1 130846Z 29015G20KT 10/M01 A3003 RMK A01 T01021006  RH  047%=      5-min Rain = 0
KHO1 130847Z 29017KT 10/M01 A3003 RMK A01 T01021006  RH  047%=      5-min Rain = 0
KHO1 130848Z 29015G20KT 10/M01 A3003 RMK A01 T01031006  RH  047%=      5-min Rain = 0
KHO1 130849Z 29017KT 10/M01 A3003 RMK A01 T01031006  RH  047%=      5-min Rain = 0
KHO1 130850Z 28016KT 10/M01 A3003 RMK A01 T01031006  RH  047%=      5-min Rain = 0
KHO1 130851Z 29015G21KT 10/M01 A3003 RMK A01 T01031006  RH  047%=      5-min Rain = 0
KHO1 130852Z 29015G20KT 10/M01 A3003 RMK A01 T01031007  RH  046%=      5-min Rain = 0
KHO1 130853Z 29016KT 10/M01 A3003 RMK A01 T01031007  RH  046%=      5-min Rain = 0
KHO1 130854Z 29017KT 10/M01 A3003 RMK A01 T01031007  RH  046%=      5-min Rain = 0
KHO1 130855Z 29014KT 10/M01 A3003 RMK A01 T01031007  RH  046%=      5-min Rain = 0
KHO1 130856Z 29016G21KT 10/M01 A3003 RMK A01 T01041007  RH  046%=      5-min Rain = 0
KHO1 130857Z 29016G22KT 10/M01 A3003 RMK A01 T01041007  RH  046%=      5-min Rain = 0
KHO1 130858Z 29014KT 10/M01 A3004 RMK A01 T01031007  RH  046%=      5-min Rain = 0
KHO1 130859Z 29015G20KT 10/M01 A3004 RMK A01 T01031007  RH  047%=      5-min Rain = 0
KHO1 130900Z 29014KT 10/M01 A3004 RMK A01 T01021007  RH  047%=      5-min Rain = 0
KHO1 130901Z 29013KT 10/M01 A3004 RMK A01 T01011006  RH  047%=      5-min Rain = 0
KHO1 130902Z 29014KT 10/M01 A3004 RMK A01 T01001006  RH  047%=      5-min Rain = 0
KHO1 130903Z 29012KT 10/M01 A3004 RMK A01 T01001006  RH  048%=      5-min Rain = 0
KHO1 130904Z 29013G18KT 10/M01 A3003 RMK A01 T00991006  RH  048%=      5-min Rain = 0
KHO1 130905Z 29013KT 10/M01 A3004 RMK A01 T00991006  RH  048%=      5-min Rain = 0
KHO1 130906Z 29015KT 10/M01 A3004 RMK A01 T00991006  RH  048%=      5-min Rain = 0
KHO1 130907Z 29014KT 10/M01 A3004 RMK A01 T00991006  RH  048%=      5-min Rain = 0
KHO1 130908Z 30014KT 10/M01 A3004 RMK A01 T01001006  RH  048%=      5-min Rain = 0
KHO1 130909Z 29016KT 10/M01 A3004 RMK A01 T01001006  RH  048%=      5-min Rain = 0
KHO1 130910Z 29014KT 10/M01 A3004 RMK A01 T01001006  RH  048%=      5-min Rain = 0
KHO1 130911Z 29014KT 10/M01 A3004 RMK A01 T01001006  RH  048%=      5-min Rain = 0
KHO1 130912Z 29012KT 10/M01 A3003 RMK A01 T01001006  RH  048%=      5-min Rain = 0
KHO1 130913Z 29012KT 10/M01 A3003 RMK A01 T00991006  RH  048%=      5-min Rain = 0
KHO1 130914Z 29013KT 10/M01 A3003 RMK A01 T00991006  RH  048%=      5-min Rain = 0
KHO1 130915Z 29012KT 10/M01 A3003 RMK A01 T00991006  RH  048%=      5-min Rain = 0
KHO1 130916Z 29013KT 10/M01 A3003 RMK A01 T00991006  RH  048%=      5-min Rain = 0
KHO1 130917Z 29012KT 10/M01 A3003 RMK A01 T00991006  RH  048%=      5-min Rain = 0
KHO1 130918Z 29011KT 10/M01 A3003 RMK A01 T00981006  RH  048%=      5-min Rain = 0
KHO1 130919Z 29011KT 10/M01 A3003 RMK A01 T00971006  RH  049%=      5-min Rain = 0
KHO1 130920Z 28012KT 10/M01 A3003 RMK A01 T00961006  RH  049%=      5-min Rain = 0
KHO1 130921Z 29013KT 10/M01 A3003 RMK A01 T00961006  RH  049%=      5-min Rain = 0
KHO1 130922Z 28012KT 10/M01 A3003 RMK A01 T00951005  RH  050%=      5-min Rain = 0
KHO1 130923Z 28012KT 09/M00 A3003 RMK A01 T00941004  RH  050%=      5-min Rain = 0
KHO1 130924Z 28012KT 09/M00 A3003 RMK A01 T00921004  RH  051%=      5-min Rain = 0
KHO1 130925Z 28013KT 09/M00 A3003 RMK A01 T00911004  RH  051%=      5-min Rain = 0
KHO1 130926Z 28014KT 09/M00 A3003 RMK A01 T00911004  RH  051%=      5-min Rain = 0
KHO1 130927Z 28013KT 09/M00 A3003 RMK A01 T00911004  RH  052%=      5-min Rain = 0
KHO1 130928Z 29014KT 09/M00 A3003 RMK A01 T00911004  RH  052%=      5-min Rain = 0
KHO1 130929Z 29013KT 09/M00 A3003 RMK A01 T00901004  RH  052%=      5-min Rain = 0
KHO1 130930Z 29012KT 09/M00 A3003 RMK A01 T00901003  RH  052%=      5-min Rain = 0
KHO1 130931Z 29011KT 09/M00 A3003 RMK A01 T00901004  RH  052%=      5-min Rain = 0
KHO1 130932Z 29011KT 09/M00 A3003 RMK A01 T00901004  RH  052%=      5-min Rain = 0
KHO1 130933Z 29012KT 09/M00 A3003 RMK A01 T00901004  RH  052%=      5-min Rain = 0
KHO1 130934Z 29012KT 09/M01 A3003 RMK A01 T00911005  RH  051%=      5-min Rain = 0
KHO1 130935Z 29013KT 09/M01 A3003 RMK A01 T00921005  RH  051%=      5-min Rain = 0
KHO1 130936Z 29013KT 09/M01 A3003 RMK A01 T00921005  RH  051%=      5-min Rain = 0
KHO1 130937Z 29013KT 09/M01 A3003 RMK A01 T00921005  RH  050%=      5-min Rain = 0
KHO1 130938Z 29012KT 09/M01 A3003 RMK A01 T00931006  RH  050%=      5-min Rain = 0
KHO1 130939Z 29013KT 09/M01 A3003 RMK A01 T00931006  RH  050%=      5-min Rain = 0
KHO1 130940Z 29012KT 09/M01 A3003 RMK A01 T00931005  RH  050%=      5-min Rain = 0
KHO1 130941Z 29013KT 09/M01 A3003 RMK A01 T00921005  RH  050%=      5-min Rain = 0
KHO1 130942Z 29013KT 09/M01 A3003 RMK A01 T00921006  RH  050%=      5-min Rain = 0
KHO1 130943Z 29012KT 09/M01 A3003 RMK A01 T00921005  RH  051%=      5-min Rain = 0
KHO1 130944Z 29012KT 09/M01 A3003 RMK A01 T00911005  RH  051%=      5-min Rain = 0
KHO1 130945Z 29013KT 09/M01 A3003 RMK A01 T00911005  RH  051%=      5-min Rain = 0
KHO1 130946Z 29011KT 09/M01 A3003 RMK A01 T00911005  RH  051%=      5-min Rain = 0
KHO1 130947Z 29014G19KT 09/M01 A3003 RMK A01 T00921006  RH  050%=      5-min Rain = 0
KHO1 130948Z 29013G18KT 09/M01 A3003 RMK A01 T00921006  RH  050%=      5-min Rain = 0
KHO1 130949Z 29012KT 09/M01 A3003 RMK A01 T00931006  RH  050%=      5-min Rain = 0
KHO1 130950Z 29014KT 09/M01 A3003 RMK A01 T00931006  RH  050%=      5-min Rain = 0
KHO1 130951Z 29013G19KT 09/M01 A3003 RMK A01 T00941007  RH  049%=      5-min Rain = 0
KHO1 130952Z 29015KT 10/M01 A3003 RMK A01 T00951007  RH  049%=      5-min Rain = 0
KHO1 130953Z 29015G20KT 10/M01 A3003 RMK A01 T00961007  RH  048%=      5-min Rain = 0
KHO1 130954Z 29014KT 10/M01 A3003 RMK A01 T00961008  RH  048%=      5-min Rain = 0
KHO1 130955Z 30015KT 10/M01 A3003 RMK A01 T00971008  RH  048%=      5-min Rain = 0
KHO1 130956Z 30015KT 10/M01 A3003 RMK A01 T00981008  RH  048%=      5-min Rain = 0
KHO1 130957Z 30015KT 10/M01 A3003 RMK A01 T00981008  RH  048%=      5-min Rain = 0
KHO1 130958Z 30013KT 10/M01 A3003 RMK A01 T00981008  RH  048%=      5-min Rain = 0
KHO1 130959Z 30015KT 10/M01 A3003 RMK A01 T00981008  RH  048%=      5-min Rain = 0
KHO1 131000Z 30014KT 10/M01 A3003 RMK A01 T00981008  RH  047%=      5-min Rain = 0
KHO1 131001Z 29012KT 10/M01 A3003 RMK A01 T00981008  RH  048%=      5-min Rain = 0
KHO1 131002Z 30012KT 10/M01 A3003 RMK A01 T00971008  RH  048%=      5-min Rain = 0
KHO1 131003Z 30013KT 10/M01 A3003 RMK A01 T00961008  RH  048%=      5-min Rain = 0
KHO1 131004Z 30013KT 10/M01 A3004 RMK A01 T00961008  RH  048%=      5-min Rain = 0
KHO1 131005Z 30012KT 10/M01 A3004 RMK A01 T00951008  RH  049%=      5-min Rain = 0
KHO1 131006Z 30011KT 10/M01 A3004 RMK A01 T00951008  RH  049%=      5-min Rain = 0
KHO1 131007Z 30012KT 10/M01 A3004 RMK A01 T00951008  RH  049%=      5-min Rain = 0
KHO1 131008Z 30011KT 10/M01 A3004 RMK A01 T00951008  RH  049%=      5-min Rain = 0
KHO1 131009Z 29013KT 09/M01 A3004 RMK A01 T00941008  RH  049%=      5-min Rain = 0
KHO1 131010Z 30012KT 10/M01 A3004 RMK A01 T00951008  RH  049%=      5-min Rain = 0
KHO1 131011Z 30013KT 10/M01 A3004 RMK A01 T00951008  RH  049%=      5-min Rain = 0
KHO1 131012Z 29013KT 09/M01 A3004 RMK A01 T00941008  RH  049%=      5-min Rain = 0
KHO1 131013Z 29013KT 10/M01 A3004 RMK A01 T00951008  RH  049%=      5-min Rain = 0
KHO1 131014Z 29011KT 10/M01 A3003 RMK A01 T00951008  RH  049%=      5-min Rain = 0
KHO1 131015Z 29012KT 09/M01 A3003 RMK A01 T00941008  RH  049%=      5-min Rain = 0
KHO1 131016Z 29012KT 09/M01 A3003 RMK A01 T00941008  RH  049%=      5-min Rain = 0
KHO1 131017Z 29014KT 09/M01 A3004 RMK A01 T00941008  RH  049%=      5-min Rain = 0
KHO1 131018Z 29013KT 10/M01 A3004 RMK A01 T00951008  RH  049%=      5-min Rain = 0
KHO1 131019Z 29012KT 10/M01 A3003 RMK A01 T00951008  RH  049%=      5-min Rain = 0
KHO1 131020Z 29012KT 09/M01 A3003 RMK A01 T00941008  RH  049%=      5-min Rain = 0
KHO1 131021Z 29011KT 09/M01 A3003 RMK A01 T00941008  RH  049%=      5-min Rain = 0
KHO1 131022Z 29011KT 09/M01 A3003 RMK A01 T00931008  RH  049%=      5-min Rain = 0
KHO1 131023Z 29011KT 09/M01 A3003 RMK A01 T00931008  RH  049%=      5-min Rain = 0
KHO1 131024Z 29010KT 09/M01 A3003 RMK A01 T00921008  RH  050%=      5-min Rain = 0
KHO1 131025Z 29011KT 09/M01 A3003 RMK A01 T00921008  RH  050%=      5-min Rain = 0
KHO1 131026Z 29011KT 09/M01 A3003 RMK A01 T00911008  RH  050%=      5-min Rain = 0
KHO1 131027Z 29010KT 09/M01 A3003 RMK A01 T00911007  RH  050%=      5-min Rain = 0
KHO1 131028Z 29009KT 09/M01 A3003 RMK A01 T00901007  RH  050%=      5-min Rain = 0
KHO1 131029Z 29009KT 09/M01 A3003 RMK A01 T00891007  RH  051%=      5-min Rain = 0
KHO1 131030Z 29010KT 09/M01 A3003 RMK A01 T00891007  RH  051%=      5-min Rain = 0
KHO1 131031Z 29009KT 09/M01 A3002 RMK A01 T00891007  RH  051%=      5-min Rain = 0
KHO1 131032Z 29010KT 09/M01 A3002 RMK A01 T00891007  RH  051%=      5-min Rain = 0
KHO1 131033Z 29010KT 09/M01 A3002 RMK A01 T00881007  RH  051%=      5-min Rain = 0
KHO1 131034Z 29011KT 09/M01 A3002 RMK A01 T00881007  RH  051%=      5-min Rain = 0
KHO1 131035Z 29011KT 09/M01 A3003 RMK A01 T00891007  RH  051%=      5-min Rain = 0
KHO1 131036Z 30012KT 09/M01 A3003 RMK A01 T00901008  RH  050%=      5-min Rain = 0
KHO1 131037Z 29012KT 09/M01 A3003 RMK A01 T00911008  RH  050%=      5-min Rain = 0
KHO1 131038Z 29013KT 09/M01 A3003 RMK A01 T00921008  RH  050%=      5-min Rain = 0
KHO1 131039Z 29012KT 09/M01 A3003 RMK A01 T00921008  RH  050%=      5-min Rain = 0
KHO1 131040Z 29012KT 09/M01 A3003 RMK A01 T00921008  RH  049%=      5-min Rain = 0
KHO1 131041Z 29013KT 09/M01 A3003 RMK A01 T00921008  RH  049%=      5-min Rain = 0
KHO1 131042Z 29012KT 09/M01 A3003 RMK A01 T00931008  RH  049%=      5-min Rain = 0
KHO1 131043Z 29012KT 09/M01 A3003 RMK A01 T00931008  RH  049%=      5-min Rain = 0
KHO1 131044Z 29012KT 09/M01 A3003 RMK A01 T00921008  RH  049%=      5-min Rain = 0
KHO1 131045Z 29011KT 09/M01 A3003 RMK A01 T00921008  RH  049%=      5-min Rain = 0
KHO1 131046Z 30013KT 09/M01 A3003 RMK A01 T00921008  RH  049%=      5-min Rain = 0
KHO1 131047Z 30012KT 09/M01 A3003 RMK A01 T00921008  RH  049%=      5-min Rain = 0
KHO1 131048Z 30013KT 09/M01 A3004 RMK A01 T00921008  RH  049%=      5-min Rain = 0
KHO1 131049Z 30012KT 09/M01 A3004 RMK A01 T00921008  RH  049%=      5-min Rain = 0
KHO1 131050Z 30014KT 09/M01 A3003 RMK A01 T00921009  RH  049%=      5-min Rain = 0
KHO1 131051Z 30013KT 09/M01 A3003 RMK A01 T00941009  RH  049%=      5-min Rain = 0
KHO1 131052Z 30013KT 10/M01 A3003 RMK A01 T00951009  RH  048%=      5-min Rain = 0
KHO1 131053Z 29013KT 10/M01 A3003 RMK A01 T00961010  RH  048%=      5-min Rain = 0
KHO1 131054Z 29013KT 10/M01 A3003 RMK A01 T00971010  RH  047%=      5-min Rain = 0
KHO1 131055Z 29013KT 10/M01 A3003 RMK A01 T00981010  RH  047%=      5-min Rain = 0
KHO1 131056Z 29013KT 10/M01 A3003 RMK A01 T00981010  RH  047%=      5-min Rain = 0
KHO1 131057Z 29011KT 10/M01 A3003 RMK A01 T00981010  RH  047%=      5-min Rain = 0
KHO1 131058Z 29011KT 10/M01 A3003 RMK A01 T00971010  RH  047%=      5-min Rain = 0
KHO1 131059Z 29012KT 10/M01 A3003 RMK A01 T00961010  RH  048%=      5-min Rain = 0
KHO1 131100Z 29011KT 10/M01 A3003 RMK A01 T00961009  RH  048%=      5-min Rain = 0
KHO1 131101Z 29011KT 10/M01 A3003 RMK A01 T00951009  RH  048%=      5-min Rain = 0
KHO1 131102Z 29011KT 10/M01 A3003 RMK A01 T00951009  RH  048%=      5-min Rain = 0
KHO1 131103Z 29012KT 10/M01 A3004 RMK A01 T00951009  RH  048%=      5-min Rain = 0
KHO1 131104Z 29012KT 10/M01 A3004 RMK A01 T00951009  RH  048%=      5-min Rain = 0
KHO1 131105Z 29012KT 09/M01 A3004 RMK A01 T00941009  RH  048%=      5-min Rain = 0
KHO1 131106Z 29012KT 10/M01 A3005 RMK A01 T00951009  RH  048%=      5-min Rain = 0
KHO1 131107Z 29014KT 10/M01 A3004 RMK A01 T00951009  RH  048%=      5-min Rain = 0
KHO1 131108Z 29010KT 10/M01 A3004 RMK A01 T00951009  RH  048%=      5-min Rain = 0
KHO1 131109Z 29011KT 10/M01 A3004 RMK A01 T00951009  RH  048%=      5-min Rain = 0
KHO1 131110Z 29012KT 10/M01 A3004 RMK A01 T00951009  RH  048%=      5-min Rain = 0
KHO1 131111Z 29011KT 10/M01 A3003 RMK A01 T00951009  RH  048%=      5-min Rain = 0
KHO1 131112Z 29011KT 10/M01 A3003 RMK A01 T00951009  RH  048%=      5-min Rain = 0
KHO1 131113Z 29011KT 10/M01 A3003 RMK A01 T00951009  RH  048%=      5-min Rain = 0
KHO1 131114Z 28011KT 09/M01 A3003 RMK A01 T00941009  RH  048%=      5-min Rain = 0
KHO1 131115Z 28012KT 10/M01 A3003 RMK A01 T00951010  RH  048%=      5-min Rain = 0
KHO1 131116Z 29013KT 10/M01 A3003 RMK A01 T00951010  RH  048%=      5-min Rain = 0
KHO1 131117Z 28012KT 10/M01 A3002 RMK A01 T00961010  RH  048%=      5-min Rain = 0
KHO1 131118Z 28012KT 10/M01 A3002 RMK A01 T00971010  RH  047%=      5-min Rain = 0
KHO1 131119Z 28011KT 10/M01 A3001 RMK A01 T00971010  RH  047%=      5-min Rain = 0
KHO1 131120Z 29012KT 10/M01 A3001 RMK A01 T00971010  RH  047%=      5-min Rain = 0
KHO1 131121Z 29011KT 10/M01 A3002 RMK A01 T00961010  RH  047%=      5-min Rain = 0
KHO1 131122Z 29010KT 10/M01 A3002 RMK A01 T00961010  RH  048%=      5-min Rain = 0
KHO1 131123Z 29010KT 10/M01 A3003 RMK A01 T00951010  RH  048%=      5-min Rain = 0
KHO1 131124Z 29010KT 09/M01 A3003 RMK A01 T00941009  RH  048%=      5-min Rain = 0
KHO1 131125Z 28011KT 09/M01 A3003 RMK A01 T00931009  RH  049%=      5-min Rain = 0
KHO1 131126Z 29012KT 09/M01 A3003 RMK A01 T00931009  RH  049%=      5-min Rain = 0
KHO1 131127Z 29011KT 09/M01 A3003 RMK A01 T00931009  RH  049%=      5-min Rain = 0
KHO1 131128Z 29011KT 09/M01 A3003 RMK A01 T00931009  RH  049%=      5-min Rain = 0
KHO1 131129Z 29011KT 09/M01 A3003 RMK A01 T00931009  RH  049%=      5-min Rain = 0
KHO1 131130Z 29011KT 09/M01 A3003 RMK A01 T00921009  RH  049%=      5-min Rain = 0
KHO1 131131Z 29011KT 09/M01 A3003 RMK A01 T00911009  RH  050%=      5-min Rain = 0
KHO1 131132Z 29010KT 09/M01 A3003 RMK A01 T00911009  RH  050%=      5-min Rain = 0
KHO1 131133Z 29009KT 09/M01 A3003 RMK A01 T00911009  RH  050%=      5-min Rain = 0
KHO1 131134Z 29010KT 09/M01 A3003 RMK A01 T00901009  RH  050%=      5-min Rain = 0
KHO1 131135Z 29009KT 09/M01 A3003 RMK A01 T00901009  RH  050%=      5-min Rain = 0
KHO1 131136Z 29009KT 09/M01 A3002 RMK A01 T00901009  RH  050%=      5-min Rain = 0
KHO1 131137Z 28010KT 09/M01 A3002 RMK A01 T00891009  RH  050%=      5-min Rain = 0
KHO1 131138Z 29011KT 09/M01 A3002 RMK A01 T00901009  RH  050%=      5-min Rain = 0
KHO1 131139Z 28011KT 09/M01 A3002 RMK A01 T00911009  RH  050%=      5-min Rain = 0
KHO1 131140Z 29011KT 09/M01 A3002 RMK A01 T00911009  RH  049%=      5-min Rain = 0
KHO1 131141Z 29008G13KT 09/M01 A3002 RMK A01 T00911008  RH  050%=      5-min Rain = 0
KHO1 131142Z 29008KT 09/M01 A3002 RMK A01 T00901008  RH  050%=      5-min Rain = 0
KHO1 131143Z 29008KT 09/M01 A3002 RMK A01 T00881008  RH  051%=      5-min Rain = 0
KHO1 131144Z 29008KT 09/M01 A3002 RMK A01 T00881008  RH  051%=      5-min Rain = 0
KHO1 131145Z 29008KT 09/M01 A3002 RMK A01 T00881008  RH  051%=      5-min Rain = 0
KHO1 131146Z 29009KT 09/M01 A3003 RMK A01 T00871008  RH  051%=      5-min Rain = 0
KHO1 131147Z 29009KT 09/M01 A3003 RMK A01 T00881008  RH  051%=      5-min Rain = 0
KHO1 131148Z 29008KT 09/M01 A3003 RMK A01 T00871008  RH  051%=      5-min Rain = 0
KHO1 131149Z 29008KT 09/M01 A3002 RMK A01 T00871008  RH  051%=      5-min Rain = 0
KHO1 131150Z 29008KT 09/M01 A3002 RMK A01 T00871008  RH  051%=      5-min Rain = 0
KHO1 131151Z 29007KT 09/M01 A3002 RMK A01 T00861008  RH  051%=      5-min Rain = 0
KHO1 131152Z 30007KT 09/M01 A3002 RMK A01 T00861008  RH  051%=      5-min Rain = 0
KHO1 131153Z 30007KT 09/M01 A3002 RMK A01 T00861008  RH  052%=      5-min Rain = 0
KHO1 131154Z 30007KT 09/M01 A3002 RMK A01 T00861008  RH  052%=      5-min Rain = 0
KHO1 131155Z 30007KT 09/M01 A3003 RMK A01 T00851008  RH  052%=      5-min Rain = 0
KHO1 131156Z 30008KT 08/M01 A3003 RMK A01 T00841008  RH  053%=      5-min Rain = 0
KHO1 131157Z 30007KT 08/M01 A3003 RMK A01 T00831008  RH  053%=      5-min Rain = 0
KHO1 131158Z 30007KT 08/M01 A3003 RMK A01 T00831008  RH  053%=      5-min Rain = 0
KHO1 131159Z 30007KT 08/M01 A3002 RMK A01 T00831008  RH  053%=      5-min Rain = 0
KHO1 131200Z 30008KT 08/M01 A3002 RMK A01 T00831008  RH  053%=      5-min Rain = 0
KHO1 131201Z 30008KT 08/M01 A3002 RMK A01 T00831008  RH  052%=      5-min Rain = 0
KHO1 131202Z 30008KT 08/M01 A3002 RMK A01 T00841008  RH  052%=      5-min Rain = 0
KHO1 131203Z 29009KT 08/M01 A3002 RMK A01 T00841008  RH  052%=      5-min Rain = 0
KHO1 131204Z 30009KT 08/M01 A3002 RMK A01 T00841008  RH  052%=      5-min Rain = 0
KHO1 131205Z 30009KT 08/M01 A3003 RMK A01 T00841008  RH  052%=      5-min Rain = 0
KHO1 131206Z 30009KT 08/M01 A3003 RMK A01 T00841008  RH  052%=      5-min Rain = 0
KHO1 131207Z 29009KT 08/M01 A3003 RMK A01 T00841008  RH  052%=      5-min Rain = 0
KHO1 131208Z 29008KT 08/M01 A3003 RMK A01 T00841008  RH  052%=      5-min Rain = 0
KHO1 131209Z 29008KT 08/M01 A3003 RMK A01 T00841008  RH  052%=      5-min Rain = 0
KHO1 131210Z 29009KT 08/M01 A3002 RMK A01 T00841008  RH  052%=      5-min Rain = 0
KHO1 131211Z 29009KT 08/M01 A3002 RMK A01 T00841008  RH  052%=      5-min Rain = 0
KHO1 131212Z 29009KT 08/M01 A3002 RMK A01 T00841008  RH  052%=      5-min Rain = 0
KHO1 131213Z 29010KT 08/M01 A3002 RMK A01 T00841008  RH  052%=      5-min Rain = 0
KHO1 131214Z 29009KT 08/M01 A3003 RMK A01 T00841008  RH  052%=      5-min Rain = 0
KHO1 131215Z 29011KT 08/M01 A3003 RMK A01 T00841008  RH  052%=      5-min Rain = 0
KHO1 131216Z 30010KT 09/M01 A3002 RMK A01 T00851008  RH  052%=      5-min Rain = 0
KHO1 131217Z 30011KT 09/M01 A3002 RMK A01 T00851008  RH  052%=      5-min Rain = 0
KHO1 131218Z 30010KT 09/M01 A3002 RMK A01 T00861008  RH  052%=      5-min Rain = 0
KHO1 131219Z 30011KT 09/M01 A3002 RMK A01 T00851008  RH  052%=      5-min Rain = 0
KHO1 131220Z 30011KT 09/M01 A3002 RMK A01 T00851008  RH  052%=      5-min Rain = 0
KHO1 131221Z 30011KT 09/M01 A3002 RMK A01 T00861008  RH  052%=      5-min Rain = 0
KHO1 131222Z 30011KT 09/M01 A3002 RMK A01 T00861008  RH  052%=      5-min Rain = 0
KHO1 131223Z 30010KT 09/M01 A3002 RMK A01 T00861008  RH  052%=      5-min Rain = 0
KHO1 131224Z 30011KT 09/M01 A3002 RMK A01 T00851008  RH  052%=      5-min Rain = 0
KHO1 131225Z 30011KT 09/M01 A3002 RMK A01 T00861008  RH  052%=      5-min Rain = 0
KHO1 131226Z 30012G17KT 09/M01 A3002 RMK A01 T00871008  RH  051%=      5-min Rain = 0
KHO1 131227Z 30010KT 09/M01 A3002 RMK A01 T00881008  RH  051%=      5-min Rain = 0
KHO1 131228Z 30011KT 09/M01 A3002 RMK A01 T00881008  RH  051%=      5-min Rain = 0
KHO1 131229Z 30012KT 09/M01 A3002 RMK A01 T00881008  RH  051%=      5-min Rain = 0
KHO1 131230Z 30013KT 09/M01 A3002 RMK A01 T00891009  RH  050%=      5-min Rain = 0
KHO1 131231Z 30013KT 09/M01 A3002 RMK A01 T00911009  RH  050%=      5-min Rain = 0
KHO1 131232Z 30012KT 09/M01 A3002 RMK A01 T00921009  RH  050%=      5-min Rain = 0
KHO1 131233Z 30012KT 09/M01 A3003 RMK A01 T00921009  RH  049%=      5-min Rain = 0
KHO1 131234Z 30013KT 09/M01 A3003 RMK A01 T00921009  RH  049%=      5-min Rain = 0
KHO1 131235Z 30014KT 09/M01 A3002 RMK A01 T00931009  RH  049%=      5-min Rain = 0
KHO1 131236Z 30013KT 09/M01 A3002 RMK A01 T00941009  RH  049%=      5-min Rain = 0
KHO1 131237Z 30013KT 09/M01 A3002 RMK A01 T00941009  RH  049%=      5-min Rain = 0
KHO1 131238Z 30014KT 09/M01 A3002 RMK A01 T00941009  RH  048%=      5-min Rain = 0
KHO1 131239Z 30012KT 10/M01 A3002 RMK A01 T00951009  RH  048%=      5-min Rain = 0
KHO1 131240Z 30013KT 10/M01 A3002 RMK A01 T00951009  RH  048%=      5-min Rain = 0
KHO1 131241Z 30014KT 10/M01 A3002 RMK A01 T00961010  RH  048%=      5-min Rain = 0
KHO1 131242Z 30013KT 10/M01 A3002 RMK A01 T00971010  RH  047%=      5-min Rain = 0
KHO1 131243Z 30013KT 10/M01 A3002 RMK A01 T00971010  RH  047%=      5-min Rain = 0
KHO1 131244Z 30012KT 10/M01 A3002 RMK A01 T00981010  RH  047%=      5-min Rain = 0
KHO1 131245Z 30012KT 10/M01 A3002 RMK A01 T00971010  RH  047%=      5-min Rain = 0
KHO1 131246Z 30012KT 10/M01 A3002 RMK A01 T00971010  RH  047%=      5-min Rain = 0
KHO1 131247Z 30012KT 10/M01 A3002 RMK A01 T00971010  RH  047%=      5-min Rain = 0
KHO1 131248Z 30012KT 10/M01 A3002 RMK A01 T00971010  RH  047%=      5-min Rain = 0
KHO1 131249Z 29013KT 10/M01 A3002 RMK A01 T00971010  RH  047%=      5-min Rain = 0
KHO1 131250Z 30012KT 10/M01 A3002 RMK A01 T00971010  RH  047%=      5-min Rain = 0
KHO1 131251Z 30013KT 10/M01 A3002 RMK A01 T00971010  RH  047%=      5-min Rain = 0
KHO1 131252Z 30013KT 10/M01 A3003 RMK A01 T00971010  RH  047%=      5-min Rain = 0
KHO1 131253Z 30012KT 10/M01 A3003 RMK A01 T00961010  RH  048%=      5-min Rain = 0
KHO1 131254Z 30013KT 10/M01 A3003 RMK A01 T00951010  RH  048%=      5-min Rain = 0
KHO1 131255Z 30013KT 10/M01 A3003 RMK A01 T00951010  RH  048%=      5-min Rain = 0
KHO1 131256Z 30013KT 09/M01 A3003 RMK A01 T00941010  RH  048%=      5-min Rain = 0
KHO1 131257Z 30011KT 09/M01 A3003 RMK A01 T00941010  RH  048%=      5-min Rain = 0
KHO1 131258Z 30013KT 09/M01 A3003 RMK A01 T00931010  RH  049%=      5-min Rain = 0
KHO1 131259Z 30013KT 09/M01 A3003 RMK A01 T00931010  RH  049%=      5-min Rain = 0
KHO1 131300Z 30012KT 09/M01 A3003 RMK A01 T00931010  RH  049%=      5-min Rain = 0
KHO1 131301Z 30012KT 09/M01 A3003 RMK A01 T00921010  RH  049%=      5-min Rain = 0
KHO1 131302Z 30012KT 09/M01 A3003 RMK A01 T00921010  RH  049%=      5-min Rain = 0
KHO1 131303Z 30012KT 09/M01 A3003 RMK A01 T00911010  RH  049%=      5-min Rain = 0
KHO1 131304Z 29012KT 09/M01 A3003 RMK A01 T00911010  RH  049%=      5-min Rain = 0
KHO1 131305Z 29012KT 09/M01 A3003 RMK A01 T00911010  RH  049%=      5-min Rain = 0
KHO1 131306Z 30012KT 09/M01 A3003 RMK A01 T00901010  RH  049%=      5-min Rain = 0
KHO1 131307Z 30011KT 09/M01 A3002 RMK A01 T00901010  RH  049%=      5-min Rain = 0
KHO1 131308Z 30012KT 09/M01 A3002 RMK A01 T00901010  RH  050%=      5-min Rain = 0
KHO1 131309Z 30012KT 09/M01 A3002 RMK A01 T00901010  RH  050%=      5-min Rain = 0
KHO1 131310Z 30011KT 09/M01 A3002 RMK A01 T00901010  RH  050%=      5-min Rain = 0
KHO1 131311Z 30011KT 09/M01 A3002 RMK A01 T00901010  RH  050%=      5-min Rain = 0
KHO1 131312Z 30011KT 09/M01 A3003 RMK A01 T00891009  RH  050%=      5-min Rain = 0
KHO1 131313Z 31011G16KT 09/M01 A3003 RMK A01 T00891009  RH  050%=      5-min Rain = 0
KHO1 131314Z 30010KT 09/M01 A3003 RMK A01 T00891009  RH  050%=      5-min Rain = 0
KHO1 131315Z 30012KT 09/M01 A3003 RMK A01 T00891009  RH  050%=      5-min Rain = 0
KHO1 131316Z 30010KT 09/M01 A3003 RMK A01 T00891009  RH  050%=      5-min Rain = 0
KHO1 131317Z 30010KT 09/M01 A3003 RMK A01 T00881009  RH  050%=      5-min Rain = 0
KHO1 131318Z 31010KT 09/M01 A3003 RMK A01 T00881009  RH  050%=      5-min Rain = 0
KHO1 131319Z 31011KT 09/M01 A3003 RMK A01 T00881009  RH  050%=      5-min Rain = 0
KHO1 131320Z 30010KT 09/M01 A3003 RMK A01 T00891009  RH  050%=      5-min Rain = 0
KHO1 131321Z 30009KT 09/M01 A3003 RMK A01 T00891009  RH  050%=      5-min Rain = 0
KHO1 131322Z 30010KT 09/M01 A3003 RMK A01 T00891009  RH  050%=      5-min Rain = 0
KHO1 131323Z 30010KT 09/M01 A3003 RMK A01 T00891009  RH  050%=      5-min Rain = 0
KHO1 131324Z 30011KT 09/M01 A3002 RMK A01 T00881009  RH  050%=      5-min Rain = 0
KHO1 131325Z 30011KT 09/M01 A3002 RMK A01 T00881009  RH  050%=      5-min Rain = 0
KHO1 131326Z 30009KT 09/M01 A3003 RMK A01 T00881009  RH  051%=      5-min Rain = 0
KHO1 131327Z 30010KT 09/M01 A3003 RMK A01 T00871009  RH  051%=      5-min Rain = 0
KHO1 131328Z 30011KT 09/M01 A3003 RMK A01 T00861009  RH  051%=      5-min Rain = 0
KHO1 131329Z 30009KT 09/M01 A3003 RMK A01 T00861008  RH  051%=      5-min Rain = 0
KHO1 131330Z 30010KT 09/M01 A3003 RMK A01 T00851009  RH  052%=      5-min Rain = 0
KHO1 131331Z 30011KT 09/M01 A3003 RMK A01 T00851009  RH  052%=      5-min Rain = 0
KHO1 131332Z 30012KT 09/M01 A3003 RMK A01 T00861009  RH  051%=      5-min Rain = 0
KHO1 131333Z 30011KT 09/M01 A3003 RMK A01 T00861009  RH  051%=      5-min Rain = 0
KHO1 131334Z 30010KT 09/M01 A3003 RMK A01 T00861008  RH  051%=      5-min Rain = 0
KHO1 131335Z 30011KT 09/M01 A3003 RMK A01 T00851009  RH  052%=      5-min Rain = 0
KHO1 131336Z 30011KT 09/M01 A3003 RMK A01 T00851009  RH  052%=      5-min Rain = 0
KHO1 131337Z 30010KT 09/M01 A3003 RMK A01 T00851009  RH  052%=      5-min Rain = 0
KHO1 131338Z 31011KT 09/M01 A3003 RMK A01 T00851009  RH  052%=      5-min Rain = 0
KHO1 131339Z 30011KT 09/M01 A3003 RMK A01 T00851009  RH  052%=      5-min Rain = 0
KHO1 131340Z 30011KT 09/M01 A3003 RMK A01 T00851009  RH  052%=      5-min Rain = 0
KHO1 131341Z 30011KT 08/M01 A3003 RMK A01 T00841009  RH  052%=      5-min Rain = 0
KHO1 131342Z 30011KT 08/M01 A3003 RMK A01 T00841009  RH  052%=      5-min Rain = 0
KHO1 131343Z 30013KT 08/M01 A3003 RMK A01 T00841009  RH  052%=      5-min Rain = 0
KHO1 131344Z 30013KT 09/M01 A3003 RMK A01 T00851009  RH  052%=      5-min Rain = 0
KHO1 131345Z 30013KT 09/M01 A3003 RMK A01 T00861009  RH  051%=      5-min Rain = 0
KHO1 131346Z 30013KT 09/M01 A3003 RMK A01 T00861009  RH  051%=      5-min Rain = 0
KHO1 131347Z 30013KT 09/M01 A3003 RMK A01 T00861009  RH  051%=      5-min Rain = 0
KHO1 131348Z 30014KT 09/M01 A3003 RMK A01 T00871009  RH  051%=      5-min Rain = 0
KHO1 131349Z 30013KT 09/M01 A3003 RMK A01 T00881009  RH  051%=      5-min Rain = 0
KHO1 131350Z 30014KT 09/M01 A3003 RMK A01 T00881009  RH  050%=      5-min Rain = 0
KHO1 131351Z 30014KT 09/M01 A3003 RMK A01 T00881009  RH  050%=      5-min Rain = 0
KHO1 131352Z 30014KT 09/M01 A3003 RMK A01 T00901010  RH  050%=      5-min Rain = 0
KHO1 131353Z 30015KT 09/M01 A3003 RMK A01 T00901009  RH  050%=      5-min Rain = 0
KHO1 131354Z 30015KT 09/M01 A3003 RMK A01 T00901010  RH  050%=      5-min Rain = 0
KHO1 131355Z 30015KT 09/M01 A3004 RMK A01 T00911010  RH  049%=      5-min Rain = 0
KHO1 131356Z 30017KT 09/M01 A3004 RMK A01 T00921010  RH  049%=      5-min Rain = 0
KHO1 131357Z 30015KT 09/M01 A3004 RMK A01 T00921010  RH  049%=      5-min Rain = 0
KHO1 131358Z 30015KT 09/M01 A3004 RMK A01 T00921010  RH  049%=      5-min Rain = 0
KHO1 131359Z 30014KT 09/M01 A3004 RMK A01 T00921010  RH  049%=      5-min Rain = 0
KHO1 131400Z 30015KT 09/M01 A3004 RMK A01 T00921010  RH  049%=      5-min Rain = 0
KHO1 131401Z 30013KT 09/M01 A3004 RMK A01 T00921009  RH  049%=      5-min Rain = 0
KHO1 131402Z 30015KT 09/M01 A3004 RMK A01 T00911010  RH  049%=      5-min Rain = 0
KHO1 131403Z 31014KT 09/M01 A3004 RMK A01 T00921010  RH  049%=      5-min Rain = 0
KHO1 131404Z 30013KT 09/M01 A3004 RMK A01 T00921010  RH  049%=      5-min Rain = 0
KHO1 131405Z 30013KT 09/M01 A3004 RMK A01 T00921010  RH  049%=      5-min Rain = 0
KHO1 131406Z 30012KT 09/M01 A3004 RMK A01 T00931009  RH  049%=      5-min Rain = 0
KHO1 131407Z 30014KT 09/M01 A3004 RMK A01 T00931010  RH  049%=      5-min Rain = 0
KHO1 131408Z 30013KT 09/M01 A3004 RMK A01 T00931010  RH  049%=      5-min Rain = 0
KHO1 131409Z 30013KT 09/M01 A3004 RMK A01 T00931009  RH  049%=      5-min Rain = 0
KHO1 131410Z 30014G19KT 09/M01 A3004 RMK A01 T00931009  RH  049%=      5-min Rain = 0
KHO1 131411Z 30013KT 09/M01 A3004 RMK A01 T00931009  RH  049%=      5-min Rain = 0
KHO1 131412Z 30014KT 09/M01 A3004 RMK A01 T00941009  RH  048%=      5-min Rain = 0
KHO1 131413Z 30015G20KT 10/M01 A3004 RMK A01 T00951010  RH  048%=      5-min Rain = 0
KHO1 131414Z 30015KT 10/M01 A3005 RMK A01 T00961009  RH  048%=      5-min Rain = 0
KHO1 131415Z 30014KT 10/M01 A3005 RMK A01 T00961009  RH  048%=      5-min Rain = 0
KHO1 131416Z 30013KT 10/M01 A3005 RMK A01 T00971009  RH  047%=      5-min Rain = 0
KHO1 131417Z 31014KT 10/M01 A3005 RMK A01 T00981009  RH  047%=      5-min Rain = 0
KHO1 131418Z 30014KT 10/M01 A3005 RMK A01 T00991009  RH  047%=      5-min Rain = 0
KHO1 131419Z 30014KT 10/M01 A3005 RMK A01 T01001009  RH  047%=      5-min Rain = 0
KHO1 131420Z 31013KT 10/M01 A3005 RMK A01 T01001009  RH  047%=      5-min Rain = 0
KHO1 131421Z 31014KT 10/M01 A3005 RMK A01 T01001009  RH  046%=      5-min Rain = 0
KHO1 131422Z 30013KT 10/M01 A3005 RMK A01 T01011009  RH  046%=      5-min Rain = 0
KHO1 131423Z 30012KT 10/M01 A3005 RMK A01 T01021009  RH  046%=      5-min Rain = 0
KHO1 131424Z 30013KT 10/M01 A3005 RMK A01 T01021009  RH  046%=      5-min Rain = 0
KHO1 131425Z 30013KT 10/M01 A3005 RMK A01 T01021009  RH  046%=      5-min Rain = 0
KHO1 131426Z 30013KT 10/M01 A3005 RMK A01 T01031009  RH  046%=      5-min Rain = 0
KHO1 131427Z 31014KT 10/M01 A3005 RMK A01 T01031009  RH  046%=      5-min Rain = 0
KHO1 131428Z 30013KT 10/M01 A3005 RMK A01 T01041009  RH  045%=      5-min Rain = 0
KHO1 131429Z 30013KT 11/M01 A3005 RMK A01 T01051009  RH  045%=      5-min Rain = 0
KHO1 131430Z 30012KT 11/M01 A3005 RMK A01 T01051009  RH  045%=      5-min Rain = 0
KHO1 131431Z 30013KT 11/M01 A3005 RMK A01 T01061009  RH  045%=      5-min Rain = 0
KHO1 131432Z 30012KT 11/M01 A3005 RMK A01 T01061009  RH  045%=      5-min Rain = 0
KHO1 131433Z 30012KT 11/M01 A3006 RMK A01 T01061009  RH  045%=      5-min Rain = 0
KHO1 131434Z 31013KT 11/M01 A3006 RMK A01 T01071008  RH  045%=      5-min Rain = 0
KHO1 131435Z 30011KT 11/M01 A3006 RMK A01 T01071008  RH  045%=      5-min Rain = 0
KHO1 131436Z 30011KT 11/M01 A3005 RMK A01 T01081008  RH  045%=      5-min Rain = 0
KHO1 131437Z 30011KT 11/M01 A3005 RMK A01 T01081008  RH  044%=      5-min Rain = 0
KHO1 131438Z 30012KT 11/M01 A3005 RMK A01 T01091008  RH  044%=      5-min Rain = 0
KHO1 131439Z 29012KT 11/M01 A3006 RMK A01 T01091008  RH  044%=      5-min Rain = 0
KHO1 131440Z 29010KT 11/M01 A3005 RMK A01 T01091007  RH  044%=      5-min Rain = 0
KHO1 131441Z 30011KT 11/M01 A3006 RMK A01 T01091007  RH  044%=      5-min Rain = 0
KHO1 131442Z 29011KT 11/M01 A3006 RMK A01 T01101007  RH  044%=      5-min Rain = 0
KHO1 131443Z 28009KT 11/M01 A3006 RMK A01 T01101007  RH  044%=      5-min Rain = 0
KHO1 131444Z 29010KT 11/M01 A3006 RMK A01 T01101006  RH  044%=      5-min Rain = 0
KHO1 131445Z 29009KT 11/M01 A3006 RMK A01 T01101006  RH  045%=      5-min Rain = 0
KHO1 131446Z 28011KT 11/M01 A3006 RMK A01 T01101007  RH  044%=      5-min Rain = 0
KHO1 131447Z 29011KT 11/M01 A3006 RMK A01 T01101006  RH  045%=      5-min Rain = 0
KHO1 131448Z 29010KT 11/M01 A3006 RMK A01 T01091006  RH  045%=      5-min Rain = 0
KHO1 131449Z 29010KT 11/M01 A3006 RMK A01 T01091005  RH  045%=      5-min Rain = 0
KHO1 131450Z 29009KT 11/M01 A3006 RMK A01 T01081005  RH  046%=      5-min Rain = 0
KHO1 131451Z 29010KT 11/M01 A3006 RMK A01 T01081005  RH  046%=      5-min Rain = 0
KHO1 131452Z 29009KT 11/M01 A3006 RMK A01 T01081005  RH  046%=      5-min Rain = 0
KHO1 131453Z 29010KT 11/M00 A3006 RMK A01 T01071004  RH  046%=      5-min Rain = 0
KHO1 131454Z 30011KT 11/M01 A3006 RMK A01 T01071005  RH  046%=      5-min Rain = 0
KHO1 131455Z 29011KT 11/M01 A3006 RMK A01 T01071005  RH  046%=      5-min Rain = 0
KHO1 131456Z 29013KT 11/M01 A3006 RMK A01 T01071006  RH  046%=      5-min Rain = 0
KHO1 131457Z 29012KT 11/M01 A3006 RMK A01 T01071006  RH  046%=      5-min Rain = 0
KHO1 131458Z 29012KT 11/M01 A3006 RMK A01 T01081005  RH  046%=      5-min Rain = 0
KHO1 131459Z 29010KT 11/M00 A3006 RMK A01 T01081004  RH  046%=      5-min Rain = 0
KHO1 131500Z 29012KT 11/M01 A3006 RMK A01 T01081006  RH  045%=      5-min Rain = 0
KHO1 131501Z 29011KT 11/M01 A3006 RMK A01 T01081005  RH  046%=      5-min Rain = 0
KHO1 131502Z 29012KT 11/M01 A3006 RMK A01 T01081005  RH  045%=      5-min Rain = 0
KHO1 131503Z 29012KT 11/M01 A3006 RMK A01 T01081006  RH  045%=      5-min Rain = 0
KHO1 131504Z 29012KT 11/M01 A3006 RMK A01 T01091005  RH  045%=      5-min Rain = 0
KHO1 131505Z 29012KT 11/M01 A3006 RMK A01 T01091005  RH  045%=      5-min Rain = 0
KHO1 131506Z 29013KT 11/M01 A3006 RMK A01 T01101005  RH  045%=      5-min Rain = 0
KHO1 131507Z 30014KT 11/M01 A3006 RMK A01 T01101006  RH  044%=      5-min Rain = 0
KHO1 131508Z 29012KT 11/M01 A3006 RMK A01 T01111006  RH  044%=      5-min Rain = 0
KHO1 131509Z 30011KT 11/M01 A3006 RMK A01 T01121005  RH  044%=      5-min Rain = 0
KHO1 131510Z 29011KT 11/M01 A3006 RMK A01 T01121005  RH  044%=      5-min Rain = 0
KHO1 131511Z 29010KT 11/M00 A3006 RMK A01 T01131004  RH  044%=      5-min Rain = 0
KHO1 131512Z 29010KT 11/M00 A3006 RMK A01 T01141003  RH  044%=      5-min Rain = 0
KHO1 131513Z 29011KT 12/M00 A3006 RMK A01 T01151004  RH  044%=      5-min Rain = 0
KHO1 131514Z 29012KT 12/M01 A3006 RMK A01 T01151006  RH  043%=      5-min Rain = 0
KHO1 131515Z 29011KT 12/M01 A3006 RMK A01 T01151005  RH  043%=      5-min Rain = 0
KHO1 131516Z 29013KT 12/M01 A3006 RMK A01 T01161005  RH  043%=      5-min Rain = 0
KHO1 131517Z 29012KT 12/M01 A3006 RMK A01 T01171005  RH  043%=      5-min Rain = 0
KHO1 131518Z 29012KT 12/M01 A3006 RMK A01 T01181005  RH  043%=      5-min Rain = 0
KHO1 131519Z 29010KT 12/M00 A3006 RMK A01 T01191004  RH  043%=      5-min Rain = 0
KHO1 131520Z 30010KT 12/M01 A3006 RMK A01 T01201005  RH  042%=      5-min Rain = 0
KHO1 131521Z 30010KT 12/M01 A3006 RMK A01 T01201005  RH  042%=      5-min Rain = 0
KHO1 131522Z 29008KT 12/M00 A3006 RMK A01 T01211004  RH  042%=      5-min Rain = 0
KHO1 131523Z 29010KT 12/M00 A3006 RMK A01 T01221004  RH  042%=      5-min Rain = 0
KHO1 131524Z 29011G18KT 12/M01 A3006 RMK A01 T01231005  RH  041%=      5-min Rain = 0
KHO1 131525Z 30014KT 12/M01 A3006 RMK A01 T01241008  RH  040%=      5-min Rain = 0
KHO1 131526Z 29010KT 13/M01 A3006 RMK A01 T01251007  RH  040%=      5-min Rain = 0
KHO1 131527Z 29011KT 13/M01 A3006 RMK A01 T01261007  RH  040%=      5-min Rain = 0
KHO1 131528Z 29010KT 13/M01 A3006 RMK A01 T01271006  RH  040%=      5-min Rain = 0
KHO1 131529Z 29011KT 13/M01 A3006 RMK A01 T01281007  RH  039%=      5-min Rain = 0
KHO1 131530Z 29012KT 13/M01 A3006 RMK A01 T01291006  RH  039%=      5-min Rain = 0
KHO1 131531Z 29012KT 13/M01 A3006 RMK A01 T01301007  RH  039%=      5-min Rain = 0
KHO1 131532Z 29012KT 13/M01 A3006 RMK A01 T01301008  RH  038%=      5-min Rain = 0
KHO1 131533Z 29012G17KT 13/M01 A3006 RMK A01 T01311008  RH  038%=      5-min Rain = 0
KHO1 131534Z 29014KT 13/M01 A3006 RMK A01 T01321010  RH  037%=      5-min Rain = 0
KHO1 131535Z 29013KT 13/M01 A3006 RMK A01 T01331009  RH  038%=      5-min Rain = 0
KHO1 131536Z 30010KT 13/M01 A3006 RMK A01 T01341007  RH  038%=      5-min Rain = 0
KHO1 131537Z 30011KT 14/M01 A3006 RMK A01 T01351007  RH  037%=      5-min Rain = 0
KHO1 131538Z 29009KT 14/M01 A3006 RMK A01 T01361008  RH  037%=      5-min Rain = 0
KHO1 131539Z 29009KT 14/M01 A3006 RMK A01 T01361008  RH  037%=      5-min Rain = 0
KHO1 131540Z 29009KT 14/M01 A3006 RMK A01 T01371007  RH  037%=      5-min Rain = 0
KHO1 131541Z 30010G15KT 14/M01 A3006 RMK A01 T01391007  RH  037%=      5-min Rain = 0
KHO1 131542Z 30011KT 14/M01 A3006 RMK A01 T01391008  RH  036%=      5-min Rain = 0
KHO1 131543Z 29009KT 14/M01 A3006 RMK A01 T01391009  RH  036%=      5-min Rain = 0
KHO1 131544Z 30008KT 14/M01 A3005 RMK A01 T01401007  RH  036%=      5-min Rain = 0
KHO1 131545Z 30011KT 14/M01 A3005 RMK A01 T01411009  RH  036%=      5-min Rain = 0
KHO1 131546Z 29009KT 14/M01 A3005 RMK A01 T01411009  RH  036%=      5-min Rain = 0
KHO1 131547Z 30010KT 14/M01 A3005 RMK A01 T01411008  RH  036%=      5-min Rain = 0
KHO1 131548Z 30012KT 14/M01 A3005 RMK A01 T01421010  RH  035%=      5-min Rain = 0
KHO1 131549Z 30012KT 14/M01 A3005 RMK A01 T01431011  RH  035%=      5-min Rain = 0
KHO1 131550Z 30011KT 14/M01 A3005 RMK A01 T01431011  RH  035%=      5-min Rain = 0
KHO1 131551Z 30011KT 14/M01 A3006 RMK A01 T01441009  RH  035%=      5-min Rain = 0
KHO1 131552Z 30013KT 15/M01 A3006 RMK A01 T01461010  RH  034%=      5-min Rain = 0
KHO1 131553Z 30012KT 15/M01 A3006 RMK A01 T01471011  RH  034%=      5-min Rain = 0
KHO1 131554Z 29013KT 15/M01 A3006 RMK A01 T01471012  RH  033%=      5-min Rain = 0
KHO1 131555Z 30011KT 15/M01 A3006 RMK A01 T01481011  RH  034%=      5-min Rain = 0
KHO1 131556Z 30012KT 15/M01 A3006 RMK A01 T01491011  RH  033%=      5-min Rain = 0
KHO1 131557Z 30012KT 15/M01 A3006 RMK A01 T01501008  RH  034%=      5-min Rain = 0
KHO1 131558Z 30013KT 15/M01 A3005 RMK A01 T01521012  RH  033%=      5-min Rain = 0
KHO1 131559Z 30012G17KT 15/M01 A3005 RMK A01 T01521013  RH  032%=      5-min Rain = 0
KHO1 131600Z 31012KT 15/M01 A3005 RMK A01 T01531011  RH  032%=      5-min Rain = 0
KHO1 131601Z 30014KT 15/M01 A3005 RMK A01 T01541012  RH  032%=      5-min Rain = 0
KHO1 131602Z 30013KT 16/M01 A3005 RMK A01 T01551012  RH  032%=      5-min Rain = 0
KHO1 131603Z 30011KT 16/M01 A3005 RMK A01 T01551011  RH  032%=      5-min Rain = 0
KHO1 131604Z 30012KT 16/M01 A3005 RMK A01 T01561010  RH  032%=      5-min Rain = 0
KHO1 131605Z 30012KT 16/M01 A3005 RMK A01 T01561009  RH  032%=      5-min Rain = 0
KHO1 131606Z 30014KT 16/M01 A3005 RMK A01 T01571013  RH  031%=      5-min Rain = 0
KHO1 131607Z 29014KT 16/M01 A3005 RMK A01 T01571013  RH  031%=      5-min Rain = 0
KHO1 131608Z 29013KT 16/M01 A3005 RMK A01 T01561013  RH  031%=      5-min Rain = 0
KHO1 131609Z 30012G17KT 16/M01 A3005 RMK A01 T01571011  RH  032%=      5-min Rain = 0
KHO1 131610Z 29014KT 16/M01 A3006 RMK A01 T01571013  RH  031%=      5-min Rain = 0
KHO1 131611Z 29015KT 16/M01 A3006 RMK A01 T01561014  RH  031%=      5-min Rain = 0
KHO1 131612Z 29017KT 16/M02 A3006 RMK A01 T01551015  RH  031%=      5-min Rain = 0
KHO1 131613Z 29014KT 16/M01 A3006 RMK A01 T01551013  RH  032%=      5-min Rain = 0
KHO1 131614Z 30017KT 16/M02 A3006 RMK A01 T01551017  RH  031%=      5-min Rain = 0
KHO1 131615Z 29012KT 16/M01 A3006 RMK A01 T01551014  RH  031%=      5-min Rain = 0
KHO1 131616Z 28015KT 16/M01 A3006 RMK A01 T01551013  RH  031%=      5-min Rain = 0
KHO1 131617Z 28016KT 16/M01 A3006 RMK A01 T01561014  RH  031%=      5-min Rain = 0
KHO1 131618Z 29013KT 16/M01 A3006 RMK A01 T01561013  RH  031%=      5-min Rain = 0
KHO1 131619Z 28017KT 16/M01 A3006 RMK A01 T01561014  RH  031%=      5-min Rain = 0
KHO1 131620Z 28017KT 16/M02 A3006 RMK A01 T01561015  RH  031%=      5-min Rain = 0
KHO1 131621Z 29017KT 16/M02 A3006 RMK A01 T01561016  RH  031%=      5-min Rain = 0
KHO1 131622Z 29014G19KT 16/M02 A3006 RMK A01 T01561015  RH  031%=      5-min Rain = 0
KHO1 131623Z 29014KT 16/M01 A3006 RMK A01 T01581013  RH  031%=      5-min Rain = 0
KHO1 131624Z 29015KT 16/M01 A3006 RMK A01 T01581013  RH  031%=      5-min Rain = 0
KHO1 131625Z 29016KT 16/M01 A3006 RMK A01 T01581014  RH  031%=      5-min Rain = 0
KHO1 131626Z 29016KT 16/M02 A3006 RMK A01 T01581015  RH  031%=      5-min Rain = 0
KHO1 131627Z 29011G17KT 16/M01 A3006 RMK A01 T01581012  RH  031%=      5-min Rain = 0
KHO1 131628Z 28017KT 16/M02 A3006 RMK A01 T01601015  RH  030%=      5-min Rain = 0
KHO1 131629Z 29017KT 16/M02 A3006 RMK A01 T01601016  RH  030%=      5-min Rain = 0
KHO1 131630Z 29017KT 16/M01 A3006 RMK A01 T01591014  RH  030%=      5-min Rain = 0
KHO1 131631Z 28016KT 16/M02 A3006 RMK A01 T01601015  RH  030%=      5-min Rain = 0
KHO1 131632Z 28015KT 16/M02 A3006 RMK A01 T01591015  RH  030%=      5-min Rain = 0
KHO1 131633Z 28018KT 16/M02 A3006 RMK A01 T01601016  RH  030%=      5-min Rain = 0
KHO1 131634Z 28016KT 16/M02 A3006 RMK A01 T01591015  RH  030%=      5-min Rain = 0
KHO1 131635Z 28015KT 16/M01 A3006 RMK A01 T01601013  RH  031%=      5-min Rain = 0
KHO1 131636Z 28017KT 16/M01 A3006 RMK A01 T01611014  RH  030%=      5-min Rain = 0
KHO1 131637Z 28013KT 16/M01 A3006 RMK A01 T01611012  RH  031%=      5-min Rain = 0
KHO1 131638Z 28012KT 16/M01 A3006 RMK A01 T01631010  RH  031%=      5-min Rain = 0
KHO1 131639Z 28014KT 16/M01 A3006 RMK A01 T01631011  RH  030%=      5-min Rain = 0
KHO1 131640Z 28014KT 16/M01 A3006 RMK A01 T01641011  RH  030%=      5-min Rain = 0
KHO1 131641Z 27014KT 16/M01 A3006 RMK A01 T01641011  RH  030%=      5-min Rain = 0
KHO1 131642Z 28014KT 17/M01 A3006 RMK A01 T01651011  RH  030%=      5-min Rain = 0
KHO1 131643Z 28014KT 17/M01 A3006 RMK A01 T01651012  RH  030%=      5-min Rain = 0
KHO1 131644Z 28015KT 17/M01 A3006 RMK A01 T01651012  RH  030%=      5-min Rain = 0
KHO1 131645Z 28014KT 17/M01 A3006 RMK A01 T01661012  RH  030%=      5-min Rain = 0
KHO1 131646Z 28015KT 17/M01 A3006 RMK A01 T01671013  RH  029%=      5-min Rain = 0
KHO1 131647Z 28017KT 17/M01 A3006 RMK A01 T01671014  RH  029%=      5-min Rain = 0
KHO1 131648Z 28017KT 17/M01 A3006 RMK A01 T01671014  RH  029%=      5-min Rain = 0
KHO1 131649Z 28019KT 17/M02 A3006 RMK A01 T01671016  RH  029%=      5-min Rain = 0
KHO1 131650Z 28017KT 17/M02 A3006 RMK A01 T01661016  RH  029%=      5-min Rain = 0
KHO1 131651Z 28017KT 17/M01 A3006 RMK A01 T01671014  RH  029%=      5-min Rain = 0
KHO1 131652Z 29013KT 17/M01 A3006 RMK A01 T01681013  RH  029%=      5-min Rain = 0
KHO1 131653Z 27013KT 17/M01 A3006 RMK A01 T01701010  RH  029%=      5-min Rain = 0
KHO1 131654Z 28015KT 17/M01 A3006 RMK A01 T01711011  RH  029%=      5-min Rain = 0
KHO1 131655Z 29015KT 17/M01 A3006 RMK A01 T01721011  RH  029%=      5-min Rain = 0
KHO1 131656Z 29013KT 17/M01 A3006 RMK A01 T01721011  RH  029%=      5-min Rain = 0
KHO1 131657Z 28014KT 17/M01 A3006 RMK A01 T01731011  RH  029%=      5-min Rain = 0
KHO1 131658Z 28014KT 17/M01 A3006 RMK A01 T01731009  RH  029%=      5-min Rain = 0
KHO1 131659Z 26012KT 17/M01 A3006 RMK A01 T01711008  RH  030%=      5-min Rain = 0
KHO1 131700Z 26012KT 17/M01 A3006 RMK A01 T01701007  RH  030%=      5-min Rain = 0
KHO1 131701Z 27014KT 17/M01 A3006 RMK A01 T01691008  RH  030%=      5-min Rain = 0
KHO1 131702Z 26014KT 17/M01 A3006 RMK A01 T01681008  RH  030%=      5-min Rain = 0
KHO1 131703Z 26013KT 17/M01 A3006 RMK A01 T01681009  RH  030%=      5-min Rain = 0
KHO1 131704Z 27009KT 17/M01 A3006 RMK A01 T01691005  RH  031%=      5-min Rain = 0
KHO1 131705Z 26010KT 17/M00 A3006 RMK A01 T01721002  RH  031%=      5-min Rain = 0
KHO1 131706Z 27013KT 17/M01 A3006 RMK A01 T01721006  RH  030%=      5-min Rain = 0
KHO1 131707Z 27011KT 17/M01 A3005 RMK A01 T01721005  RH  030%=      5-min Rain = 0
KHO1 131708Z 26010KT 17/M01 A3005 RMK A01 T01711007  RH  030%=      5-min Rain = 0
KHO1 131709Z 26009KT 17/M01 A3005 RMK A01 T01711006  RH  030%=      5-min Rain = 0
KHO1 131710Z 27009KT 17/M00 A3005 RMK A01 T01721004  RH  030%=      5-min Rain = 0
KHO1 131711Z 28012KT 17/M01 A3005 RMK A01 T01731006  RH  030%=      5-min Rain = 0
KHO1 131712Z 27012KT 17/M01 A3005 RMK A01 T01721006  RH  030%=      5-min Rain = 0
KHO1 131713Z 27012KT 17/M01 A3005 RMK A01 T01721006  RH  030%=      5-min Rain = 0
KHO1 131714Z 27011KT 17/M01 A3005 RMK A01 T01721005  RH  030%=      5-min Rain = 0
KHO1 131715Z 28011KT 17/M00 A3005 RMK A01 T01741004  RH  030%=      5-min Rain = 0
KHO1 131716Z 27012KT 17/M01 A3005 RMK A01 T01741005  RH  030%=      5-min Rain = 0
KHO1 131717Z 28013KT 17/M01 A3005 RMK A01 T01741005  RH  030%=      5-min Rain = 0
KHO1 131718Z 27012KT 17/M01 A3005 RMK A01 T01731005  RH  030%=      5-min Rain = 0
KHO1 131719Z 27011KT 17/M00 A3005 RMK A01 T01731003  RH  030%=      5-min Rain = 0
KHO1 131720Z 28012KT 17/M01 A3005 RMK A01 T01731005  RH  030%=      5-min Rain = 0
KHO1 131721Z 27012KT 17/M00 A3005 RMK A01 T01721003  RH  030%=      5-min Rain = 0
KHO1 131722Z 27012KT 17/M00 A3005 RMK A01 T01721004  RH  030%=      5-min Rain = 0
KHO1 131723Z 26012KT 17/M01 A3005 RMK A01 T01711005  RH  030%=      5-min Rain = 0
KHO1 131724Z 26013KT 17/M00 A3005 RMK A01 T01721003  RH  030%=      5-min Rain = 0
KHO1 131725Z 26011KT 17/M00 A3005 RMK A01 T01731003  RH  030%=      5-min Rain = 0
KHO1 131726Z 27012KT 18/00 A3005 RMK A01 T017600-0  RH  030%=      5-min Rain = 0
KHO1 131727Z 27012KT 18/M00 A3005 RMK A01 T01771002  RH  030%=      5-min Rain = 0
KHO1 131728Z 28010KT 18/00 A3005 RMK A01 T017800-0  RH  030%=      5-min Rain = 0
KHO1 131729Z 26011KT 18/M00 A3005 RMK A01 T01781003  RH  029%=      5-min Rain = 0
KHO1 131730Z 28018G24KT 18/M01 A3006 RMK A01 T01771007  RH  029%=      5-min Rain = 0
KHO1 131731Z 31018G23KT 18/M02 A3005 RMK A01 T01791021  RH  026%=      5-min Rain = 0
KHO1 131732Z 31018G23KT 18/M02 A3005 RMK A01 T01831024  RH  024%=      5-min Rain = 0
KHO1 131733Z 30019G27KT 19/M03 A3005 RMK A01 T01851025  RH  024%=      5-min Rain = 0
KHO1 131734Z 31021G27KT 19/M03 A3005 RMK A01 T01861026  RH  024%=      5-min Rain = 0
KHO1 131735Z 32019G26KT 19/M03 A3005 RMK A01 T01861026  RH  024%=      5-min Rain = 0
KHO1 131736Z 32017KT 19/M03 A3004 RMK A01 T01851025  RH  024%=      5-min Rain = 0
KHO1 131737Z 31017G23KT 19/M02 A3004 RMK A01 T01851024  RH  024%=      5-min Rain = 0
KHO1 131738Z 32015G21KT 19/M02 A3004 RMK A01 T01851023  RH  024%=      5-min Rain = 0
KHO1 131739Z 30015KT 19/M02 A3004 RMK A01 T01851023  RH  024%=      5-min Rain = 0
KHO1 131740Z 31017G22KT 19/M02 A3005 RMK A01 T01851024  RH  024%=      5-min Rain = 0
KHO1 131741Z 31014G19KT 19/M02 A3005 RMK A01 T01861022  RH  024%=      5-min Rain = 0
KHO1 131742Z 31016G21KT 19/M02 A3005 RMK A01 T01871024  RH  024%=      5-min Rain = 0
KHO1 131743Z 30018G24KT 19/M02 A3005 RMK A01 T01881024  RH  024%=      5-min Rain = 0
KHO1 131744Z 31020G26KT 19/M03 A3005 RMK A01 T01881025  RH  023%=      5-min Rain = 0
KHO1 131745Z 31020KT 19/M03 A3004 RMK A01 T01891026  RH  023%=      5-min Rain = 0
KHO1 131746Z 31019G25KT 19/M03 A3004 RMK A01 T01891025  RH  023%=      5-min Rain = 0
KHO1 131747Z 30023G29KT 19/M03 A3004 RMK A01 T01891027  RH  023%=      5-min Rain = 0
KHO1 131748Z 30021KT 19/M03 A3004 RMK A01 T01901027  RH  023%=      5-min Rain = 0
KHO1 131749Z 30022G27KT 19/M03 A3004 RMK A01 T01901027  RH  023%=      5-min Rain = 0
KHO1 131750Z 31022KT 19/M03 A3004 RMK A01 T01911026  RH  023%=      5-min Rain = 0
KHO1 131751Z 31017KT 19/M02 A3004 RMK A01 T01921024  RH  023%=      5-min Rain = 0
KHO1 131752Z 31017KT 19/M02 A3004 RMK A01 T01941024  RH  023%=      5-min Rain = 0
KHO1 131753Z 31017KT 19/M02 A3004 RMK A01 T01941024  RH  023%=      5-min Rain = 0
KHO1 131754Z 31020G26KT 20/M02 A3003 RMK A01 T01951024  RH  023%=      5-min Rain = 0
KHO1 131755Z 31023KT 19/M03 A3003 RMK A01 T01941028  RH  022%=      5-min Rain = 0
KHO1 131756Z 31022KT 19/M03 A3003 RMK A01 T01921028  RH  022%=      5-min Rain = 0
KHO1 131757Z 32018KT 19/M03 A3003 RMK A01 T01911029  RH  022%=      5-min Rain = 0
KHO1 131758Z 31018G26KT 19/M03 A3003 RMK A01 T01891029  RH  023%=      5-min Rain = 0
KHO1 131759Z 30016G22KT 19/M03 A3003 RMK A01 T01891026  RH  023%=      5-min Rain = 0
KHO1 131800Z 31021KT 19/M03 A3003 RMK A01 T01891029  RH  023%=      5-min Rain = 0
KHO1 131801Z 31021KT 19/M03 A3003 RMK A01 T01871030  RH  023%=      5-min Rain = 0
KHO1 131802Z 31020G26KT 19/M03 A3003 RMK A01 T01861030  RH  023%=      5-min Rain = 0
KHO1 131803Z 32019KT 19/M03 A3003 RMK A01 T01851029  RH  023%=      5-min Rain = 0
KHO1 131804Z 31021KT 18/M03 A3003 RMK A01 T01841029  RH  023%=      5-min Rain = 0
KHO1 131805Z 31021G29KT 18/M03 A3003 RMK A01 T01841028  RH  023%=      5-min Rain = 0
KHO1 131806Z 31017KT 19/M03 A3003 RMK A01 T01851027  RH  024%=      5-min Rain = 0
KHO1 131807Z 31019KT 19/M03 A3003 RMK A01 T01861028  RH  023%=      5-min Rain = 0
KHO1 131808Z 32020KT 19/M03 A3002 RMK A01 T01871027  RH  023%=      5-min Rain = 0
KHO1 131809Z 31019KT 19/M03 A3002 RMK A01 T01891025  RH  023%=      5-min Rain = 0
KHO1 131810Z 31015G21KT 19/M02 A3002 RMK A01 T01911022  RH  024%=      5-min Rain = 0
KHO1 131811Z 31018G23KT 19/M02 A3002 RMK A01 T01931024  RH  023%=      5-min Rain = 0
KHO1 131812Z 31019G27KT 19/M03 A3003 RMK A01 T01931025  RH  023%=      5-min Rain = 0
KHO1 131813Z 30017KT 19/M02 A3003 RMK A01 T01931024  RH  023%=      5-min Rain = 0
KHO1 131814Z 30020KT 19/M03 A3002 RMK A01 T01931027  RH  022%=      5-min Rain = 0
KHO1 131815Z 31017G23KT 19/M03 A3002 RMK A01 T01921026  RH  023%=      5-min Rain = 0
KHO1 131816Z 31018G24KT 19/M03 A3002 RMK A01 T01911025  RH  023%=      5-min Rain = 0
KHO1 131817Z 31019G24KT 19/M03 A3003 RMK A01 T01911025  RH  023%=      5-min Rain = 0
KHO1 131818Z 31022KT 19/M03 A3002 RMK A01 T01901027  RH  023%=      5-min Rain = 0
KHO1 131819Z 31019KT 19/M03 A3002 RMK A01 T01891028  RH  023%=      5-min Rain = 0
KHO1 131820Z 32021KT 19/M03 A3002 RMK A01 T01881028  RH  023%=      5-min Rain = 0
KHO1 131821Z 30022KT 19/M03 A3002 RMK A01 T01871029  RH  023%=      5-min Rain = 0
KHO1 131822Z 32016KT 19/M03 A3002 RMK A01 T01861027  RH  023%=      5-min Rain = 0
KHO1 131823Z 31016G23KT 19/M03 A3002 RMK A01 T01871025  RH  024%=      5-min Rain = 0
KHO1 131824Z 31015KT 19/M02 A3002 RMK A01 T01871024  RH  024%=      5-min Rain = 0
KHO1 131825Z 31014KT 19/M02 A3002 RMK A01 T01881022  RH  024%=      5-min Rain = 0
KHO1 131826Z 31015KT 19/M02 A3002 RMK A01 T01881024  RH  024%=      5-min Rain = 0
KHO1 131827Z 31017KT 19/M02 A3002 RMK A01 T01881024  RH  024%=      5-min Rain = 0
KHO1 131828Z 31020G26KT 19/M03 A3002 RMK A01 T01881025  RH  023%=      5-min Rain = 0
KHO1 131829Z 31018KT 19/M03 A3002 RMK A01 T01881025  RH  023%=      5-min Rain = 0
KHO1 131830Z 31017G24KT 19/M03 A3001 RMK A01 T01881025  RH  023%=      5-min Rain = 0
KHO1 131831Z 30020KT 19/M02 A3001 RMK A01 T01891024  RH  023%=      5-min Rain = 0
KHO1 131832Z 31022G27KT 19/M03 A3001 RMK A01 T01911025  RH  023%=      5-min Rain = 0
KHO1 131833Z 31020KT 19/M02 A3001 RMK A01 T01921024  RH  023%=      5-min Rain = 0
KHO1 131834Z 31019KT 19/M02 A3001 RMK A01 T01941023  RH  023%=      5-min Rain = 0
KHO1 131835Z 31017G22KT 20/M02 A3001 RMK A01 T01951022  RH  023%=      5-min Rain = 0
KHO1 131836Z 31021G28KT 20/M02 A30 RMK A01 T01961023  RH  023%=      5-min Rain = 0
KHO1 131837Z 31022G27KT 20/M03 A30 RMK A01 T01951027  RH  022%=      5-min Rain = 0
KHO1 131838Z 31016G24KT 19/M02 A30 RMK A01 T01941024  RH  023%=      5-min Rain = 0
KHO1 131839Z 30020KT 20/M03 A30 RMK A01 T01951025  RH  023%=      5-min Rain = 0
KHO1 131840Z 31020G26KT 19/M02 A30 RMK A01 T01941024  RH  023%=      5-min Rain = 0
KHO1 131841Z 32021KT 19/M03 A30 RMK A01 T01931026  RH  023%=      5-min Rain = 0
KHO1 131842Z 32021KT 19/M03 A30 RMK A01 T01921027  RH  022%=      5-min Rain = 0
KHO1 131843Z 32021G26KT 19/M03 A30 RMK A01 T01911027  RH  023%=      5-min Rain = 0
KHO1 131844Z 32018KT 19/M03 A30 RMK A01 T01911026  RH  023%=      5-min Rain = 0
KHO1 131845Z 31019KT 19/M03 A30 RMK A01 T01911026  RH  023%=      5-min Rain = 0
KHO1 131846Z 31023G35KT 19/M03 A30 RMK A01 T01921027  RH  023%=      5-min Rain = 0
KHO1 131847Z 33026G31KT 19/M03 A30 RMK A01 T01921030  RH  022%=      5-min Rain = 0
KHO1 131848Z 32023KT 19/M03 A30 RMK A01 T01921029  RH  022%=      5-min Rain = 0
KHO1 131849Z 32023G28KT 19/M03 A30 RMK A01 T01931027  RH  022%=      5-min Rain = 0
KHO1 131850Z 31020G27KT 20/M03 A30 RMK A01 T01951026  RH  022%=      5-min Rain = 0
KHO1 131851Z 31024G29KT 20/M03 A30 RMK A01 T01971027  RH  022%=      5-min Rain = 0
KHO1 131852Z 32022G27KT 20/M03 A30 RMK A01 T01961028  RH  022%=      5-min Rain = 0
KHO1 131853Z 31022G28KT 20/M03 A30 RMK A01 T01951027  RH  022%=      5-min Rain = 0
KHO1 131854Z 31021G26KT 20/M03 A30 RMK A01 T01951026  RH  022%=      5-min Rain = 0
KHO1 131855Z 31018G26KT 20/M03 A30 RMK A01 T01961025  RH  022%=      5-min Rain = 0
KHO1 131856Z 31017G23KT 20/M02 A30 RMK A01 T01961024  RH  022%=      5-min Rain = 0
KHO1 131857Z 30022G27KT 20/M03 A30 RMK A01 T01971027  RH  022%=      5-min Rain = 0
KHO1 131858Z 31027G32KT 20/M03 A2999 RMK A01 T01951030  RH  022%=      5-min Rain = 0
KHO1 131859Z 31020KT 19/M03 A30 RMK A01 T01941027  RH  022%=      5-min Rain = 0
KHO1 131900Z 30021G28KT 20/M03 A2999 RMK A01 T01951026  RH  022%=      5-min Rain = 0
KHO1 131901Z 31017G23KT 20/M03 A2999 RMK A01 T01951026  RH  022%=      5-min Rain = 0
KHO1 131902Z 31020G25KT 20/M03 A2999 RMK A01 T01951026  RH  022%=      5-min Rain = 0
KHO1 131903Z 30021G26KT 19/M03 A2999 RMK A01 T01941028  RH  022%=      5-min Rain = 0
KHO1 131904Z 30024G31KT 19/M03 A2999 RMK A01 T01931029  RH  022%=      5-min Rain = 0
KHO1 131905Z 31024G30KT 19/M03 A2999 RMK A01 T01931029  RH  022%=      5-min Rain = 0
KHO1 131906Z 30022G29KT 19/M03 A2999 RMK A01 T01931028  RH  022%=      5-min Rain = 0
KHO1 131907Z 31023KT 19/M03 A2999 RMK A01 T01931027  RH  022%=      5-min Rain = 0
KHO1 131908Z 31022KT 19/M03 A2999 RMK A01 T01941027  RH  022%=      5-min Rain = 0
KHO1 131909Z 30023G28KT 19/M03 A2999 RMK A01 T01941028  RH  022%=      5-min Rain = 0
KHO1 131910Z 30022KT 19/M03 A2999 RMK A01 T01941029  RH  022%=      5-min Rain = 0
KHO1 131911Z 31021G26KT 19/M03 A2999 RMK A01 T01941028  RH  022%=      5-min Rain = 0
KHO1 131912Z 31020G26KT 19/M03 A2999 RMK A01 T01941027  RH  022%=      5-min Rain = 0
KHO1 131913Z 31015G22KT 20/M02 A2999 RMK A01 T01951023  RH  023%=      5-min Rain = 0
KHO1 131914Z 30019G28KT 20/M02 A2999 RMK A01 T01961024  RH  022%=      5-min Rain = 0
KHO1 131915Z 30028G33KT 20/M03 A2999 RMK A01 T01961029  RH  022%=      5-min Rain = 0
KHO1 131916Z 31025G30KT 19/M03 A2998 RMK A01 T01941029  RH  022%=      5-min Rain = 0
KHO1 131917Z 30021G26KT 19/M03 A2999 RMK A01 T01941028  RH  022%=      5-min Rain = 0
KHO1 131918Z 30025G33KT 19/M03 A2999 RMK A01 T01941030  RH  022%=      5-min Rain = 0
KHO1 131919Z 30022KT 19/M03 A2999 RMK A01 T01941031  RH  022%=      5-min Rain = 0
KHO1 131920Z 31022G31KT 19/M03 A2998 RMK A01 T01941029  RH  022%=      5-min Rain = 0
KHO1 131921Z 31022G30KT 19/M03 A2998 RMK A01 T01941029  RH  022%=      5-min Rain = 0
KHO1 131922Z 31019G25KT 19/M03 A2998 RMK A01 T01941028  RH  022%=      5-min Rain = 0
KHO1 131923Z 30022G27KT 19/M03 A2998 RMK A01 T01941028  RH  022%=      5-min Rain = 0
KHO1 131924Z 31019KT 20/M03 A2998 RMK A01 T01951027  RH  022%=      5-min Rain = 0
KHO1 131925Z 30022G28KT 20/M03 A2998 RMK A01 T01951027  RH  022%=      5-min Rain = 0
KHO1 131926Z 31019G24KT 20/M03 A2998 RMK A01 T01951026  RH  022%=      5-min Rain = 0
KHO1 131927Z 30021G29KT 20/M03 A2998 RMK A01 T01951026  RH  022%=      5-min Rain = 0
KHO1 131928Z 30022KT 20/M03 A2998 RMK A01 T01951029  RH  022%=      5-min Rain = 0
KHO1 131929Z 30023KT 20/M03 A2998 RMK A01 T01951029  RH  022%=      5-min Rain = 0
KHO1 131930Z 31025G30KT 19/M03 A2998 RMK A01 T01941030  RH  022%=      5-min Rain = 0
KHO1 131931Z 30024KT 19/M03 A2997 RMK A01 T01931030  RH  022%=      5-min Rain = 0
KHO1 131932Z 30021KT 19/M03 A2997 RMK A01 T01931029  RH  022%=      5-min Rain = 0
KHO1 131933Z 30021G26KT 19/M03 A2997 RMK A01 T01941029  RH  022%=      5-min Rain = 0
KHO1 131934Z 31017G22KT 19/M03 A2997 RMK A01 T01941027  RH  022%=      5-min Rain = 0
KHO1 131935Z 31018KT 20/M03 A2997 RMK A01 T01961025  RH  022%=      5-min Rain = 0
KHO1 131936Z 30019KT 20/M03 A2998 RMK A01 T01971026  RH  022%=      5-min Rain = 0
KHO1 131937Z 30023G28KT 20/M03 A2997 RMK A01 T01971031  RH  021%=      5-min Rain = 0
KHO1 131938Z 30025G30KT 20/M03 A2997 RMK A01 T01971031  RH  021%=      5-min Rain = 0
KHO1 131939Z 30027KT 20/M03 A2997 RMK A01 T01971034  RH  021%=      5-min Rain = 0
KHO1 131940Z 30021KT 20/M03 A2997 RMK A01 T01961032  RH  021%=      5-min Rain = 0
KHO1 131941Z 30025G31KT 20/M03 A2997 RMK A01 T01971031  RH  021%=      5-min Rain = 0
KHO1 131942Z 30023G28KT 20/M03 A2997 RMK A01 T01961031  RH  021%=      5-min Rain = 0
KHO1 131943Z 30022G28KT 20/M03 A2997 RMK A01 T01961031  RH  021%=      5-min Rain = 0
KHO1 131944Z 30021G29KT 20/M03 A2997 RMK A01 T01971029  RH  022%=      5-min Rain = 0
KHO1 131945Z 31025G31KT 20/M03 A2997 RMK A01 T01961031  RH  021%=      5-min Rain = 0
KHO1 131946Z 31023G31KT 20/M03 A2997 RMK A01 T01961032  RH  021%=      5-min Rain = 0
KHO1 131947Z 32021G26KT 20/M03 A2997 RMK A01 T01951032  RH  021%=      5-min Rain = 0
KHO1 131948Z 31021G27KT 20/M03 A2997 RMK A01 T01951031  RH  021%=      5-min Rain = 0
KHO1 131949Z 32020KT 20/M03 A2997 RMK A01 T01951030  RH  022%=      5-min Rain = 0
KHO1 131950Z 31017KT 19/M03 A2997 RMK A01 T01941028  RH  022%=      5-min Rain = 0
KHO1 131951Z 31018KT 20/M03 A2997 RMK A01 T01951028  RH  022%=      5-min Rain = 0
KHO1 131952Z 31019G24KT 20/M03 A2997 RMK A01 T01961028  RH  022%=      5-min Rain = 0
KHO1 131953Z 32020G25KT 20/M03 A2997 RMK A01 T01951031  RH  021%=      5-min Rain = 0
KHO1 131954Z 31020G25KT 20/M03 A2997 RMK A01 T01951030  RH  022%=      5-min Rain = 0
KHO1 131955Z 31021KT 20/M03 A2997 RMK A01 T01951030  RH  022%=      5-min Rain = 0
KHO1 131956Z 30019G25KT 20/M03 A2997 RMK A01 T01951030  RH  022%=      5-min Rain = 0
KHO1 131957Z 31020G25KT 20/M03 A2997 RMK A01 T01951030  RH  022%=      5-min Rain = 0
KHO1 131958Z 30025G32KT 20/M03 A2997 RMK A01 T01951032  RH  021%=      5-min Rain = 0
KHO1 131959Z 30021G28KT 19/M03 A2997 RMK A01 T01941032  RH  022%=      5-min Rain = 0
KHO1 132000Z 31023G28KT 19/M03 A2997 RMK A01 T01941031  RH  022%=      5-min Rain = 0
KHO1 132001Z 30022G27KT 19/M03 A2997 RMK A01 T01941031  RH  022%=      5-min Rain = 0
KHO1 132002Z 31016G21KT 19/M03 A2997 RMK A01 T01941028  RH  022%=      5-min Rain = 0
KHO1 132003Z 31017KT 20/M03 A2997 RMK A01 T01951027  RH  022%=      5-min Rain = 0
KHO1 132004Z 31016G21KT 20/M03 A2996 RMK A01 T01951028  RH  022%=      5-min Rain = 0
KHO1 132005Z 31017KT 20/M03 A2997 RMK A01 T01951028  RH  022%=      5-min Rain = 0
KHO1 132006Z 31016G21KT 20/M03 A2996 RMK A01 T01951027  RH  022%=      5-min Rain = 0
KHO1 132007Z 31019G27KT 20/M03 A2997 RMK A01 T01951028  RH  022%=      5-min Rain = 0
KHO1 132008Z 31017KT 20/M03 A2996 RMK A01 T01961028  RH  022%=      5-min Rain = 0
KHO1 132009Z 31015KT 20/M03 A2996 RMK A01 T01961026  RH  022%=      5-min Rain = 0
KHO1 132010Z 30020G26KT 20/M03 A2996 RMK A01 T01961028  RH  022%=      5-min Rain = 0
KHO1 132011Z 31020G26KT 20/M03 A2996 RMK A01 T01961029  RH  022%=      5-min Rain = 0
KHO1 132012Z 31021KT 20/M03 A2996 RMK A01 T01961030  RH  022%=      5-min Rain = 0
KHO1 132013Z 31019G26KT 20/M03 A2996 RMK A01 T01951030  RH  022%=      5-min Rain = 0
KHO1 132014Z 30021G26KT 20/M03 A2996 RMK A01 T01951030  RH  022%=      5-min Rain = 0
KHO1 132015Z 31017G23KT 20/M03 A2996 RMK A01 T01961028  RH  022%=      5-min Rain = 0
KHO1 132016Z 31019G24KT 20/M03 A2996 RMK A01 T01961028  RH  022%=      5-min Rain = 0
KHO1 132017Z 31017KT 20/M03 A2996 RMK A01 T01961028  RH  022%=      5-min Rain = 0
KHO1 132018Z 31019G24KT 20/M03 A2996 RMK A01 T01961029  RH  022%=      5-min Rain = 0
KHO1 132019Z 31020KT 20/M03 A2996 RMK A01 T01961031  RH  021%=      5-min Rain = 0
KHO1 132020Z 31019KT 20/M03 A2996 RMK A01 T01961032  RH  021%=      5-min Rain = 0
KHO1 132021Z 30019KT 20/M03 A2996 RMK A01 T01971031  RH  021%=      5-min Rain = 0
KHO1 132022Z 31021G26KT 20/M03 A2996 RMK A01 T01971033  RH  021%=      5-min Rain = 0
KHO1 132023Z 31017KT 20/M03 A2996 RMK A01 T01961031  RH  021%=      5-min Rain = 0
KHO1 132024Z 31014G21KT 20/M03 A2996 RMK A01 T01961028  RH  022%=      5-min Rain = 0
KHO1 132025Z 30017G23KT 20/M03 A2996 RMK A01 T01971028  RH  022%=      5-min Rain = 0
KHO1 132026Z 31018G23KT 20/M03 A2996 RMK A01 T01971029  RH  021%=      5-min Rain = 0
KHO1 132027Z 31019KT 20/M03 A2996 RMK A01 T01961030  RH  021%=      5-min Rain = 0
KHO1 132028Z 32016G21KT 20/M03 A2996 RMK A01 T01961030  RH  021%=      5-min Rain = 0
KHO1 132029Z 30019G27KT 20/M03 A2996 RMK A01 T01971029  RH  022%=      5-min Rain = 0
KHO1 132030Z 30020G25KT 20/M03 A2996 RMK A01 T01971031  RH  021%=      5-min Rain = 0
KHO1 132031Z 30021KT 20/M03 A2996 RMK A01 T01971031  RH  021%=      5-min Rain = 0
KHO1 132032Z 30021G28KT 20/M03 A2996 RMK A01 T01991031  RH  021%=      5-min Rain = 0
KHO1 132033Z 30021KT 20/M03 A2996 RMK A01 T02001030  RH  021%=      5-min Rain = 0
KHO1 132034Z 29019KT 20/M03 A2995 RMK A01 T02011031  RH  021%=      5-min Rain = 0
KHO1 132035Z 30020G27KT 20/M03 A2995 RMK A01 T02021032  RH  020%=      5-min Rain = 0
KHO1 132036Z 30023KT 20/M03 A2995 RMK A01 T02021033  RH  020%=      5-min Rain = 0
KHO1 132037Z 30020KT 20/M03 A2995 RMK A01 T02031032  RH  020%=      5-min Rain = 0
KHO1 132038Z 30018G25KT 20/M04 A2995 RMK A01 T02031036  RH  020%=      5-min Rain = 0
KHO1 132039Z 30019G26KT 20/M03 A2995 RMK A01 T02041034  RH  020%=      5-min Rain = 0
KHO1 132040Z 30022KT 20/M03 A2995 RMK A01 T02041034  RH  020%=      5-min Rain = 0
KHO1 132041Z 30023G28KT 20/M03 A2995 RMK A01 T02041033  RH  020%=      5-min Rain = 0
KHO1 132042Z 29019G24KT 20/M03 A2995 RMK A01 T02041033  RH  020%=      5-min Rain = 0
KHO1 132043Z 30020G26KT 21/M03 A2995 RMK A01 T02051032  RH  020%=      5-min Rain = 0
KHO1 132044Z 30022KT 20/M04 A2995 RMK A01 T02041037  RH  019%=      5-min Rain = 0
KHO1 132045Z 31021G26KT 20/M04 A2996 RMK A01 T02031035  RH  020%=      5-min Rain = 0
KHO1 132046Z 30024KT 20/M04 A2996 RMK A01 T02031036  RH  020%=      5-min Rain = 0
KHO1 132047Z 30022G27KT 20/M03 A2996 RMK A01 T02011034  RH  020%=      5-min Rain = 0
KHO1 132048Z 31020KT 20/M03 A2996 RMK A01 T02021034  RH  020%=      5-min Rain = 0
KHO1 132049Z 30019KT 20/M03 A2996 RMK A01 T02031032  RH  020%=      5-min Rain = 0
KHO1 132050Z 30021G26KT 20/M04 A2996 RMK A01 T02041035  RH  020%=      5-min Rain = 0
KHO1 132051Z 30023G30KT 20/M04 A2996 RMK A01 T02041035  RH  020%=      5-min Rain = 0
KHO1 132052Z 29019G25KT 20/M03 A2995 RMK A01 T02041034  RH  020%=      5-min Rain = 0
KHO1 132053Z 29019G24KT 21/M04 A2995 RMK A01 T02051036  RH  020%=      5-min Rain = 0
KHO1 132054Z 29019KT 20/M04 A2995 RMK A01 T02041037  RH  019%=      5-min Rain = 0
KHO1 132055Z 30020KT 20/M04 A2995 RMK A01 T02041035  RH  020%=      5-min Rain = 0
KHO1 132056Z 29018G23KT 21/M03 A2995 RMK A01 T02051033  RH  020%=      5-min Rain = 0
KHO1 132057Z 30020KT 21/M03 A2995 RMK A01 T02061034  RH  020%=      5-min Rain = 0
KHO1 132058Z 30018KT 21/M03 A2995 RMK A01 T02061034  RH  020%=      5-min Rain = 0
KHO1 132059Z 30017KT 21/M03 A2995 RMK A01 T02061034  RH  020%=      5-min Rain = 0
KHO1 132100Z 31016G21KT 21/M03 A2995 RMK A01 T02061033  RH  020%=      5-min Rain = 0
KHO1 132101Z 31018KT 21/M04 A2995 RMK A01 T02061035  RH  019%=      5-min Rain = 0
KHO1 132102Z 31020G26KT 21/M04 A2995 RMK A01 T02061036  RH  019%=      5-min Rain = 0
KHO1 132103Z 30020KT 21/M04 A2996 RMK A01 T02061035  RH  019%=      5-min Rain = 0
KHO1 132104Z 31021KT 21/M04 A2996 RMK A01 T02061036  RH  019%=      5-min Rain = 0
KHO1 132105Z 31019G25KT 21/M04 A2996 RMK A01 T02061035  RH  019%=      5-min Rain = 0
KHO1 132106Z 31016KT 21/M03 A2996 RMK A01 T02071032  RH  020%=      5-min Rain = 0
KHO1 132107Z 30014KT 21/M03 A2996 RMK A01 T02091031  RH  020%=      5-min Rain = 0
KHO1 132108Z 31015G22KT 21/M03 A2996 RMK A01 T02101031  RH  020%=      5-min Rain = 0
KHO1 132109Z 29022G28KT 21/M04 A2996 RMK A01 T02101038  RH  019%=      5-min Rain = 0
KHO1 132110Z 30024G30KT 21/M04 A2996 RMK A01 T02071038  RH  019%=      5-min Rain = 0
KHO1 132111Z 30022KT 21/M04 A2996 RMK A01 T02071039  RH  019%=      5-min Rain = 0
KHO1 132112Z 30021KT 21/M04 A2995 RMK A01 T02061038  RH  019%=      5-min Rain = 0
KHO1 132113Z 31020G25KT 21/M04 A2995 RMK A01 T02061038  RH  019%=      5-min Rain = 0
KHO1 132114Z 30021KT 21/M04 A2995 RMK A01 T02061038  RH  019%=      5-min Rain = 0
KHO1 132115Z 30020KT 21/M04 A2995 RMK A01 T02061039  RH  019%=      5-min Rain = 0
KHO1 132116Z 30020G26KT 21/M04 A2995 RMK A01 T02071039  RH  019%=      5-min Rain = 0
KHO1 132117Z 30019KT 21/M04 A2995 RMK A01 T02081038  RH  019%=      5-min Rain = 0
KHO1 132118Z 30016G22KT 21/M04 A2995 RMK A01 T02081036  RH  019%=      5-min Rain = 0
KHO1 132119Z 31020G27KT 21/M04 A2995 RMK A01 T02081037  RH  019%=      5-min Rain = 0
KHO1 132120Z 31020G25KT 21/M04 A2995 RMK A01 T02071039  RH  019%=      5-min Rain = 0
KHO1 132121Z 31019G24KT 21/M04 A2996 RMK A01 T02061038  RH  019%=      5-min Rain = 0
KHO1 132122Z 31017G23KT 21/M04 A2996 RMK A01 T02061037  RH  019%=      5-min Rain = 0
KHO1 132123Z 30019KT 21/M04 A2996 RMK A01 T02061037  RH  019%=      5-min Rain = 0
KHO1 132124Z 31017KT 21/M04 A2996 RMK A01 T02051037  RH  019%=      5-min Rain = 0
KHO1 132125Z 32021G26KT 20/M04 A2996 RMK A01 T02031039  RH  019%=      5-min Rain = 0
KHO1 132126Z 32021G26KT 20/M04 A2996 RMK A01 T02021039  RH  019%=      5-min Rain = 0
KHO1 132127Z 32019KT 20/M04 A2996 RMK A01 T02011039  RH  019%=      5-min Rain = 0
KHO1 132128Z 32017KT 20/M04 A2996 RMK A01 T02011038  RH  020%=      5-min Rain = 0
KHO1 132129Z 32018KT 20/M04 A2996 RMK A01 T02001038  RH  020%=      5-min Rain = 0
KHO1 132130Z 32019G24KT 20/M04 A2996 RMK A01 T02001038  RH  020%=      5-min Rain = 0
KHO1 132131Z 31021KT 20/M04 A2996 RMK A01 T02001038  RH  020%=      5-min Rain = 0
KHO1 132132Z 31019KT 20/M04 A2996 RMK A01 T02001037  RH  020%=      5-min Rain = 0
KHO1 132133Z 32020KT 20/M04 A2996 RMK A01 T02001037  RH  020%=      5-min Rain = 0
KHO1 132134Z 31019KT 20/M04 A2996 RMK A01 T02001036  RH  020%=      5-min Rain = 0
KHO1 132135Z 32019KT 20/M04 A2996 RMK A01 T01991036  RH  020%=      5-min Rain = 0
KHO1 132136Z 32018G23KT 20/M04 A2996 RMK A01 T01991036  RH  020%=      5-min Rain = 0
KHO1 132137Z 31017KT 20/M04 A2996 RMK A01 T01991036  RH  020%=      5-min Rain = 0
KHO1 132138Z 31013KT 20/M03 A2996 RMK A01 T01991033  RH  021%=      5-min Rain = 0
KHO1 132139Z 31012G17KT 20/M03 A2996 RMK A01 T01991032  RH  021%=      5-min Rain = 0
KHO1 132140Z 31015KT 20/M03 A2996 RMK A01 T01991033  RH  021%=      5-min Rain = 0
KHO1 132141Z 31015G20KT 20/M04 A2996 RMK A01 T01991035  RH  020%=      5-min Rain = 0
KHO1 132142Z 31018G24KT 20/M04 A2996 RMK A01 T01991035  RH  020%=      5-min Rain = 0
KHO1 132143Z 32018G23KT 20/M04 A2996 RMK A01 T01991036  RH  020%=      5-min Rain = 0
KHO1 132144Z 32018G23KT 20/M04 A2996 RMK A01 T01981035  RH  020%=      5-min Rain = 0
KHO1 132145Z 32016KT 20/M04 A2996 RMK A01 T01981035  RH  021%=      5-min Rain = 0
KHO1 132146Z 32016G21KT 20/M03 A2996 RMK A01 T01981033  RH  021%=      5-min Rain = 0
KHO1 132147Z 32015G20KT 20/M03 A2996 RMK A01 T01981033  RH  021%=      5-min Rain = 0
KHO1 132148Z 32014KT 20/M03 A2996 RMK A01 T01971033  RH  021%=      5-min Rain = 0
KHO1 132149Z 31012KT 20/M03 A2996 RMK A01 T01971031  RH  021%=      5-min Rain = 0
KHO1 132150Z 31014KT 20/M03 A2996 RMK A01 T01981032  RH  021%=      5-min Rain = 0
KHO1 132151Z 31013KT 20/M03 A2996 RMK A01 T01981032  RH  021%=      5-min Rain = 0
KHO1 132152Z 31016KT 20/M03 A2996 RMK A01 T01981032  RH  021%=      5-min Rain = 0
KHO1 132153Z 32015KT 20/M03 A2996 RMK A01 T01981032  RH  021%=      5-min Rain = 0
KHO1 132154Z 32015G20KT 20/M03 A2996 RMK A01 T01971034  RH  021%=      5-min Rain = 0
KHO1 132155Z 32012G17KT 20/M03 A2996 RMK A01 T01971031  RH  021%=      5-min Rain = 0
KHO1 132156Z 31014G19KT 20/M03 A2996 RMK A01 T01981032  RH  021%=      5-min Rain = 0
KHO1 132157Z 31016KT 20/M03 A2995 RMK A01 T01981033  RH  021%=      5-min Rain = 0
KHO1 132158Z 31015KT 20/M03 A2995 RMK A01 T01981033  RH  021%=      5-min Rain = 0
KHO1 132159Z 31012KT 20/M03 A2996 RMK A01 T01981031  RH  021%=      5-min Rain = 0
KHO1 132200Z 31015G20KT 20/M03 A2996 RMK A01 T01981033  RH  021%=      5-min Rain = 0
KHO1 132201Z 30012KT 20/M03 A2996 RMK A01 T01991030  RH  021%=      5-min Rain = 0
KHO1 132202Z 31015G21KT 20/M03 A2996 RMK A01 T01991033  RH  021%=      5-min Rain = 0
KHO1 132203Z 32016G23KT 20/M03 A2996 RMK A01 T02001034  RH  020%=      5-min Rain = 0
KHO1 132204Z 32015KT 20/M03 A2996 RMK A01 T02011034  RH  020%=      5-min Rain = 0
KHO1 132205Z 32015KT 20/M03 A2996 RMK A01 T02021034  RH  020%=      5-min Rain = 0
KHO1 132206Z 31012G17KT 20/M03 A2996 RMK A01 T02031032  RH  020%=      5-min Rain = 0
KHO1 132207Z 31018KT 20/M04 A2996 RMK A01 T02041035  RH  020%=      5-min Rain = 0
KHO1 132208Z 30018KT 20/M04 A2996 RMK A01 T02031037  RH  020%=      5-min Rain = 0
KHO1 132209Z 31019G24KT 20/M04 A2996 RMK A01 T02031037  RH  020%=      5-min Rain = 0
KHO1 132210Z 31019KT 20/M04 A2996 RMK A01 T02021037  RH  020%=      5-min Rain = 0
KHO1 132211Z 30016KT 20/M04 A2996 RMK A01 T02011035  RH  020%=      5-min Rain = 0
KHO1 132212Z 31016G22KT 20/M04 A2996 RMK A01 T02011035  RH  020%=      5-min Rain = 0
KHO1 132213Z 31014G21KT 20/M03 A2996 RMK A01 T02011034  RH  020%=      5-min Rain = 0
KHO1 132214Z 30013G19KT 20/M03 A2996 RMK A01 T02011032  RH  021%=      5-min Rain = 0
KHO1 132215Z 31019G25KT 20/M04 A2996 RMK A01 T02021035  RH  020%=      5-min Rain = 0
KHO1 132216Z 30017G22KT 20/M03 A2996 RMK A01 T02021034  RH  020%=      5-min Rain = 0
KHO1 132217Z 30016KT 20/M03 A2996 RMK A01 T02021033  RH  020%=      5-min Rain = 0
KHO1 132218Z 30016KT 20/M03 A2996 RMK A01 T02021034  RH  020%=      5-min Rain = 0
KHO1 132219Z 30017KT 20/M03 A2996 RMK A01 T02021034  RH  020%=      5-min Rain = 0
KHO1 132220Z 30016KT 20/M03 A2996 RMK A01 T02031033  RH  020%=      5-min Rain = 0
KHO1 132221Z 30016KT 20/M03 A2996 RMK A01 T02021034  RH  020%=      5-min Rain = 0
KHO1 132222Z 31015KT 20/M03 A2996 RMK A01 T02021034  RH  020%=      5-min Rain = 0
KHO1 132223Z 30014KT 20/M03 A2996 RMK A01 T02021033  RH  020%=      5-min Rain = 0
KHO1 132224Z 30012KT 20/M03 A2996 RMK A01 T02031032  RH  020%=      5-min Rain = 0
KHO1 132225Z 31012KT 20/M03 A2996 RMK A01 T02031032  RH  020%=      5-min Rain = 0
KHO1 132226Z 31011KT 20/M03 A2997 RMK A01 T02021030  RH  021%=      5-min Rain = 0
KHO1 132227Z 31011G16KT 20/M03 A2997 RMK A01 T02021030  RH  021%=      5-min Rain = 0
KHO1 132228Z 31014KT 20/M03 A2997 RMK A01 T02021031  RH  021%=      5-min Rain = 0
KHO1 132229Z 31012KT 20/M03 A2997 RMK A01 T02011031  RH  021%=      5-min Rain = 0
KHO1 132230Z 31013KT 20/M03 A2997 RMK A01 T02011032  RH  020%=      5-min Rain = 0
KHO1 132231Z 32016KT 20/M03 A2997 RMK A01 T02011032  RH  020%=      5-min Rain = 0
KHO1 132232Z 31017KT 20/M03 A2997 RMK A01 T02011034  RH  020%=      5-min Rain = 0
KHO1 132233Z 32017G22KT 20/M04 A2996 RMK A01 T02001035  RH  020%=      5-min Rain = 0
KHO1 132234Z 31014KT 20/M03 A2996 RMK A01 T02011032  RH  021%=      5-min Rain = 0
KHO1 132235Z 31014KT 20/M03 A2996 RMK A01 T02011031  RH  021%=      5-min Rain = 0
KHO1 132236Z 32015KT 20/M03 A2996 RMK A01 T02011034  RH  020%=      5-min Rain = 0
KHO1 132237Z 32013G19KT 20/M03 A2996 RMK A01 T02001033  RH  020%=      5-min Rain = 0
KHO1 132238Z 31010KT 20/M03 A2996 RMK A01 T02001030  RH  021%=      5-min Rain = 0
KHO1 132239Z 31010KT 20/M03 A2996 RMK A01 T02011030  RH  021%=      5-min Rain = 0
KHO1 132240Z 32015G20KT 20/M03 A2996 RMK A01 T02001032  RH  021%=      5-min Rain = 0
KHO1 132241Z 32015KT 20/M04 A2996 RMK A01 T02001035  RH  020%=      5-min Rain = 0
KHO1 132242Z 32014KT 20/M04 A2996 RMK A01 T01991035  RH  020%=      5-min Rain = 0
KHO1 132243Z 32015KT 20/M04 A2996 RMK A01 T01991035  RH  020%=      5-min Rain = 0
KHO1 132244Z 32014KT 20/M04 A2996 RMK A01 T01991035  RH  020%=      5-min Rain = 0
KHO1 132245Z 32015KT 20/M04 A2996 RMK A01 T01991035  RH  020%=      5-min Rain = 0
KHO1 132246Z 32016KT 20/M04 A2996 RMK A01 T01991037  RH  020%=      5-min Rain = 0
KHO1 132247Z 31016G21KT 20/M04 A2996 RMK A01 T01981038  RH  020%=      5-min Rain = 0
KHO1 132248Z 31015KT 20/M04 A2996 RMK A01 T01981037  RH  020%=      5-min Rain = 0
KHO1 132249Z 31013KT 20/M04 A2996 RMK A01 T01981036  RH  020%=      5-min Rain = 0
KHO1 132250Z 31014KT 20/M04 A2996 RMK A01 T01971036  RH  020%=      5-min Rain = 0
KHO1 132251Z 32013KT 20/M04 A2996 RMK A01 T01971037  RH  020%=      5-min Rain = 0
KHO1 132252Z 32014KT 20/M04 A2996 RMK A01 T01961036  RH  021%=      5-min Rain = 0
KHO1 132253Z 32014KT 20/M04 A2996 RMK A01 T01951036  RH  021%=      5-min Rain = 0
KHO1 132254Z 31013KT 20/M04 A2996 RMK A01 T01951036  RH  021%=      5-min Rain = 0
KHO1 132255Z 31013KT 20/M04 A2996 RMK A01 T01951036  RH  021%=      5-min Rain = 0
KHO1 132256Z 32010KT 20/M03 A2996 RMK A01 T01951034  RH  021%=      5-min Rain = 0
KHO1 132257Z 32011KT 20/M03 A2996 RMK A01 T01951034  RH  021%=      5-min Rain = 0
KHO1 132258Z 32012KT 19/M04 A2996 RMK A01 T01941036  RH  021%=      5-min Rain = 0
KHO1 132259Z 32012KT 19/M04 A2996 RMK A01 T01941036  RH  021%=      5-min Rain = 0
KHO1 132300Z 32012KT 19/M04 A2996 RMK A01 T01941038  RH  020%=      5-min Rain = 0
KHO1 132301Z 32011KT 19/M04 A2997 RMK A01 T01941038  RH  020%=      5-min Rain = 0
KHO1 132302Z 32012KT 19/M04 A2997 RMK A01 T01941038  RH  020%=      5-min Rain = 0
KHO1 132303Z 32009KT 19/M04 A2997 RMK A01 T01941036  RH  021%=      5-min Rain = 0
KHO1 132304Z 32011KT 19/M04 A2997 RMK A01 T01931038  RH  021%=      5-min Rain = 0
KHO1 132305Z 32010KT 19/M04 A2997 RMK A01 T01931037  RH  021%=      5-min Rain = 0
KHO1 132306Z 32011KT 19/M04 A2997 RMK A01 T01931038  RH  021%=      5-min Rain = 0
KHO1 132307Z 32012KT 19/M04 A2997 RMK A01 T01931039  RH  021%=      5-min Rain = 0
KHO1 132308Z 32011KT 19/M04 A2997 RMK A01 T01921039  RH  021%=      5-min Rain = 0
KHO1 132309Z 32010KT 19/M04 A2997 RMK A01 T01921039  RH  021%=      5-min Rain = 0
KHO1 132310Z 32010KT 19/M04 A2997 RMK A01 T01921038  RH  021%=      5-min Rain = 0
KHO1 132311Z 33010KT 19/M04 A2997 RMK A01 T01911038  RH  021%=      5-min Rain = 0
KHO1 132312Z 33008KT 19/M04 A2997 RMK A01 T01911037  RH  021%=      5-min Rain = 0
KHO1 132313Z 33009KT 19/M04 A2997 RMK A01 T01901037  RH  021%=      5-min Rain = 0
KHO1 132314Z 33009KT 19/M04 A2997 RMK A01 T01901036  RH  021%=      5-min Rain = 0
KHO1 132315Z 33010KT 19/M04 A2997 RMK A01 T01891039  RH  021%=      5-min Rain = 0
KHO1 132316Z 33010KT 19/M04 A2997 RMK A01 T01891038  RH  021%=      5-min Rain = 0
KHO1 132317Z 33010KT 19/M04 A2997 RMK A01 T01891038  RH  021%=      5-min Rain = 0
KHO1 132318Z 33011KT 19/M04 A2997 RMK A01 T01881038  RH  021%=      5-min Rain = 0
KHO1 132319Z 33011KT 19/M04 A2997 RMK A01 T01881037  RH  022%=      5-min Rain = 0
KHO1 132320Z 33009KT 19/M04 A2997 RMK A01 T01861036  RH  022%=      5-min Rain = 0
KHO1 132321Z 33009G14KT 19/M04 A2997 RMK A01 T01861036  RH  022%=      5-min Rain = 0
KHO1 132322Z 33012KT 19/M04 A2997 RMK A01 T01851038  RH  022%=      5-min Rain = 0
KHO1 132323Z 33010KT 19/M04 A2997 RMK A01 T01851039  RH  022%=      5-min Rain = 0
KHO1 132324Z 33011KT 19/M04 A2997 RMK A01 T01851039  RH  021%=      5-min Rain = 0
KHO1 132325Z 33011KT 19/M04 A2997 RMK A01 T01851040  RH  021%=      5-min Rain = 0
KHO1 132326Z 33010KT 18/M04 A2997 RMK A01 T01841039  RH  022%=      5-min Rain = 0
KHO1 132327Z 33010KT 18/M04 A2997 RMK A01 T01831039  RH  022%=      5-min Rain = 0
KHO1 132328Z 33011KT 18/M04 A2997 RMK A01 T01831039  RH  022%=      5-min Rain = 0
KHO1 132329Z 33009KT 18/M04 A2998 RMK A01 T01821038  RH  022%=      5-min Rain = 0
KHO1 132330Z 33010KT 18/M04 A2998 RMK A01 T01811037  RH  022%=      5-min Rain = 0
KHO1 132331Z 33010KT 18/M04 A2998 RMK A01 T01811037  RH  022%=      5-min Rain = 0
KHO1 132332Z 33010KT 18/M04 A2998 RMK A01 T01801038  RH  022%=      5-min Rain = 0
KHO1 132333Z 33010KT 18/M04 A2998 RMK A01 T01801038  RH  022%=      5-min Rain = 0
KHO1 132334Z 33010KT 18/M04 A2998 RMK A01 T01801038  RH  022%=      5-min Rain = 0
KHO1 132335Z 33009KT 18/M04 A2998 RMK A01 T01791039  RH  022%=      5-min Rain = 0
KHO1 132336Z 33009KT 18/M04 A2998 RMK A01 T01791039  RH  022%=      5-min Rain = 0
KHO1 132337Z 33010KT 18/M04 A2998 RMK A01 T01781039  RH  022%=      5-min Rain = 0
KHO1 132338Z 33009KT 18/M04 A2998 RMK A01 T01781038  RH  023%=      5-min Rain = 0
KHO1 132339Z 33009KT 18/M04 A2998 RMK A01 T01771038  RH  023%=      5-min Rain = 0
KHO1 132340Z 33010KT 18/M04 A2998 RMK A01 T01761039  RH  023%=      5-min Rain = 0
KHO1 132341Z 33009KT 18/M04 A2998 RMK A01 T01751039  RH  023%=      5-min Rain = 0
KHO1 132342Z 33009KT 18/M04 A2998 RMK A01 T01751039  RH  023%=      5-min Rain = 0
KHO1 132343Z 33010KT 18/M04 A2998 RMK A01 T01751039  RH  023%=      5-min Rain = 0
KHO1 132344Z 33009KT 17/M04 A2998 RMK A01 T01741039  RH  023%=      5-min Rain = 0
KHO1 132345Z 33010KT 17/M04 A2998 RMK A01 T01731040  RH  023%=      5-min Rain = 0
KHO1 132346Z 33008KT 17/M04 A2998 RMK A01 T01731039  RH  023%=      5-min Rain = 0
KHO1 132347Z 33008KT 17/M04 A2998 RMK A01 T01731039  RH  023%=      5-min Rain = 0
KHO1 132348Z 33007KT 17/M04 A2998 RMK A01 T01721037  RH  024%=      5-min Rain = 0
KHO1 132349Z 33008KT 17/M04 A2998 RMK A01 T01701038  RH  024%=      5-min Rain = 0
KHO1 132350Z 32008KT 17/M04 A2998 RMK A01 T01701038  RH  024%=      5-min Rain = 0
KHO1 132351Z 33009KT 17/M04 A2998 RMK A01 T01701038  RH  024%=      5-min Rain = 0
KHO1 132352Z 32010KT 17/M04 A2998 RMK A01 T01701040  RH  023%=      5-min Rain = 0
KHO1 132353Z 32008KT 17/M04 A2998 RMK A01 T01711040  RH  023%=      5-min Rain = 0
KHO1 132354Z 33007KT 17/M04 A2998 RMK A01 T01711039  RH  024%=      5-min Rain = 0
KHO1 132355Z 32007KT 17/M04 A2998 RMK A01 T01691039  RH  024%=      5-min Rain = 0
KHO1 132356Z 32008KT 17/M04 A2998 RMK A01 T01681039  RH  024%=      5-min Rain = 0
KHO1 132357Z 33008KT 17/M04 A2998 RMK A01 T01681039  RH  024%=      5-min Rain = 0
KHO1 132358Z 33007KT 17/M04 A2999 RMK A01 T01671039  RH  024%=      5-min Rain = 0
KHO1 132359Z 33008KT 17/M04 A2999 RMK A01 T01671040  RH  024%=      5-min Rain = 0
KHO1 140000Z 32007KT 17/M04 A2999 RMK A01 T01671040  RH  024%=      5-min Rain = 0
KHO1 140001Z 32007KT 17/M04 A2998 RMK A01 T01671038  RH  024%=      5-min Rain = 0
KHO1 140002Z 32007KT 17/M04 A2998 RMK A01 T01661038  RH  024%=      5-min Rain = 0
KHO1 140003Z 32006KT 16/M04 A2998 RMK A01 T01641039  RH  025%=      5-min Rain = 0
KHO1 140004Z 32006KT 16/M04 A2998 RMK A01 T01641038  RH  025%=      5-min Rain = 0
KHO1 140005Z 32006KT 16/M04 A2998 RMK A01 T01621038  RH  025%=      5-min Rain = 0
KHO1 140006Z 32006KT 16/M04 A2998 RMK A01 T01611038  RH  025%=      5-min Rain = 0
KHO1 140007Z 32005KT 16/M04 A2998 RMK A01 T01601038  RH  025%=      5-min Rain = 0
KHO1 140008Z 32005KT 16/M04 A2998 RMK A01 T01591037  RH  026%=      5-min Rain = 0
KHO1 140009Z 31005KT 16/M04 A2998 RMK A01 T01581037  RH  026%=      5-min Rain = 0
KHO1 140010Z 31005KT 16/M04 A2998 RMK A01 T01561037  RH  026%=      5-min Rain = 0
KHO1 140011Z 31005KT 16/M04 A2998 RMK A01 T01551037  RH  026%=      5-min Rain = 0
KHO1 140012Z 31005KT 15/M04 A2998 RMK A01 T01541038  RH  026%=      5-min Rain = 0
KHO1 140013Z 31005KT 15/M04 A2998 RMK A01 T01531038  RH  027%=      5-min Rain = 0
KHO1 140014Z 31006KT 15/M04 A2998 RMK A01 T01521038  RH  027%=      5-min Rain = 0
KHO1 140015Z 31006KT 15/M04 A2998 RMK A01 T01511038  RH  027%=      5-min Rain = 0
KHO1 140016Z 31006KT 15/M04 A2998 RMK A01 T01501038  RH  027%=      5-min Rain = 0
KHO1 140017Z 31006KT 15/M04 A2998 RMK A01 T01491038  RH  027%=      5-min Rain = 0
KHO1 140018Z 31006KT 15/M04 A2998 RMK A01 T01481037  RH  028%=      5-min Rain = 0
KHO1 140019Z 31006KT 15/M04 A2998 RMK A01 T01471036  RH  028%=      5-min Rain = 0
KHO1 140020Z 32007KT 15/M04 A2998 RMK A01 T01461037  RH  028%=      5-min Rain = 0
KHO1 140021Z 32006KT 15/M04 A2998 RMK A01 T01471039  RH  027%=      5-min Rain = 0
KHO1 140022Z 32006KT 15/M04 A2998 RMK A01 T01481038  RH  028%=      5-min Rain = 0
KHO1 140023Z 32006KT 15/M04 A2998 RMK A01 T01481038  RH  028%=      5-min Rain = 0
KHO1 140024Z 31007KT 15/M04 A2998 RMK A01 T01481037  RH  028%=      5-min Rain = 0
KHO1 140025Z 32007KT 15/M04 A2998 RMK A01 T01471038  RH  028%=      5-min Rain = 0
KHO1 140026Z 32007KT 15/M04 A2998 RMK A01 T01471038  RH  028%=      5-min Rain = 0
KHO1 140027Z 31007KT 15/M04 A2998 RMK A01 T01471039  RH  027%=      5-min Rain = 0
KHO1 140028Z 31007KT 15/M04 A2998 RMK A01 T01471039  RH  027%=      5-min Rain = 0
KHO1 140029Z 31007KT 15/M04 A2998 RMK A01 T01471039  RH  027%=      5-min Rain = 0
KHO1 140030Z 31007KT 15/M04 A2999 RMK A01 T01471040  RH  027%=      5-min Rain = 0
KHO1 140031Z 31007KT 15/M04 A2999 RMK A01 T01471041  RH  027%=      5-min Rain = 0
KHO1 140032Z 30007KT 15/M04 A2999 RMK A01 T01471041  RH  027%=      5-min Rain = 0
KHO1 140033Z 30006KT 15/M04 A2999 RMK A01 T01481042  RH  027%=      5-min Rain = 0
KHO1 140034Z 30007KT 15/M04 A2999 RMK A01 T01481043  RH  026%=      5-min Rain = 0
KHO1 140035Z 30007KT 15/M04 A2999 RMK A01 T01491044  RH  026%=      5-min Rain = 0
KHO1 140036Z 30006KT 15/M04 A2999 RMK A01 T01501044  RH  026%=      5-min Rain = 0
KHO1 140037Z 30007KT 15/M04 A2999 RMK A01 T01501044  RH  026%=      5-min Rain = 0
KHO1 140038Z 30007KT 15/M05 A2999 RMK A01 T01501045  RH  026%=      5-min Rain = 0
KHO1 140039Z 28005KT 15/M04 A2999 RMK A01 T01501043  RH  026%=      5-min Rain = 0
KHO1 140040Z 28005KT 15/M04 A2999 RMK A01 T01481042  RH  027%=      5-min Rain = 0
KHO1 140041Z 27005KT 15/M04 A2999 RMK A01 T01461041  RH  027%=      5-min Rain = 0
KHO1 140042Z 27004KT 14/M04 A2999 RMK A01 T01431041  RH  028%=      5-min Rain = 0
KHO1 140043Z 27004KT 14/M04 A2999 RMK A01 T01381039  RH  029%=      5-min Rain = 0
KHO1 140044Z 27005KT 13/M04 A2999 RMK A01 T01341039  RH  030%=      5-min Rain = 0
KHO1 140045Z 27005KT 13/M04 A2999 RMK A01 T01311039  RH  031%=      5-min Rain = 0
KHO1 140046Z 27006KT 13/M04 A2999 RMK A01 T01291039  RH  031%=      5-min Rain = 0
KHO1 140047Z 27006KT 13/M04 A2999 RMK A01 T01291039  RH  031%=      5-min Rain = 0
KHO1 140048Z 27006KT 13/M04 A2999 RMK A01 T01291039  RH  031%=      5-min Rain = 0
KHO1 140049Z 28006KT 13/M04 A2999 RMK A01 T01301038  RH  031%=      5-min Rain = 0
KHO1 140050Z 27006KT 13/M04 A2999 RMK A01 T01291038  RH  031%=      5-min Rain = 0
KHO1 140051Z 28006KT 13/M04 A2999 RMK A01 T01291038  RH  031%=      5-min Rain = 0
KHO1 140052Z 28006KT 13/M04 A2999 RMK A01 T01281038  RH  031%=      5-min Rain = 0
KHO1 140053Z 28006KT 13/M04 A2999 RMK A01 T01271038  RH  031%=      5-min Rain = 0
KHO1 140054Z 28006KT 13/M04 A2999 RMK A01 T01271037  RH  032%=      5-min Rain = 0
KHO1 140055Z 29006KT 13/M04 A2999 RMK A01 T01271038  RH  032%=      5-min Rain = 0
KHO1 140056Z 29006KT 13/M04 A30 RMK A01 T01271039  RH  031%=      5-min Rain = 0
KHO1 140057Z 30006KT 13/M04 A30 RMK A01 T01271040  RH  031%=      5-min Rain = 0
KHO1 140058Z 30006KT 13/M04 A2999 RMK A01 T01281040  RH  031%=      5-min Rain = 0
KHO1 140059Z 31006KT 13/M04 A2999 RMK A01 T01291039  RH  031%=      5-min Rain = 0
KHO1 140100Z 31006KT 13/M04 A2999 RMK A01 T01291039  RH  031%=      5-min Rain = 0
KHO1 140101Z 31006KT 13/M04 A2999 RMK A01 T01281039  RH  031%=      5-min Rain = 0
KHO1 140102Z 32006KT 13/M04 A2999 RMK A01 T01281039  RH  031%=      5-min Rain = 0
KHO1 140103Z 32005KT 13/M04 A2999 RMK A01 T01281040  RH  031%=      5-min Rain = 0
KHO1 140104Z 32006KT 13/M04 A2999 RMK A01 T01281039  RH  031%=      5-min Rain = 0
KHO1 140105Z 33006KT 13/M04 A2999 RMK A01 T01261037  RH  032%=      5-min Rain = 0
KHO1 140106Z 33006KT 13/M04 A2999 RMK A01 T01251038  RH  032%=      5-min Rain = 0
KHO1 140107Z 33007KT 12/M04 A2999 RMK A01 T01241037  RH  032%=      5-min Rain = 0
KHO1 140108Z 33007KT 12/M04 A2999 RMK A01 T01231037  RH  033%=      5-min Rain = 0
KHO1 140109Z 33007KT 12/M04 A2999 RMK A01 T01221038  RH  032%=      5-min Rain = 0
KHO1 140110Z 34007KT 12/M04 A2999 RMK A01 T01231039  RH  032%=      5-min Rain = 0
KHO1 140111Z 34008KT 12/M04 A2999 RMK A01 T01241039  RH  032%=      5-min Rain = 0
KHO1 140112Z 34007KT 13/M04 A2999 RMK A01 T01251041  RH  031%=      5-min Rain = 0
KHO1 140113Z 34009KT 13/M04 A2999 RMK A01 T01261042  RH  031%=      5-min Rain = 0
KHO1 140114Z 34008KT 13/M04 A2999 RMK A01 T01281043  RH  030%=      5-min Rain = 0
KHO1 140115Z 34008KT 13/M04 A2999 RMK A01 T01301044  RH  030%=      5-min Rain = 0
KHO1 140116Z 34009KT 13/M05 A2999 RMK A01 T01321045  RH  029%=      5-min Rain = 0
KHO1 140117Z 34009KT 13/M05 A2999 RMK A01 T01331045  RH  029%=      5-min Rain = 0
KHO1 140118Z 34009KT 13/M05 A2999 RMK A01 T01341046  RH  028%=      5-min Rain = 0
KHO1 140119Z 34009KT 14/M05 A2999 RMK A01 T01351047  RH  028%=      5-min Rain = 0
KHO1 140120Z 34009KT 14/M05 A2999 RMK A01 T01361046  RH  028%=      5-min Rain = 0
KHO1 140121Z 34008KT 14/M05 A2999 RMK A01 T01361046  RH  028%=      5-min Rain = 0
KHO1 140122Z 34009KT 14/M05 A2999 RMK A01 T01351047  RH  028%=      5-min Rain = 0
KHO1 140123Z 34009KT 14/M05 A2999 RMK A01 T01351046  RH  028%=      5-min Rain = 0
KHO1 140124Z 34008KT 13/M04 A2999 RMK A01 T01341044  RH  029%=      5-min Rain = 0
KHO1 140125Z 33008KT 13/M04 A2999 RMK A01 T01321044  RH  029%=      5-min Rain = 0
KHO1 140126Z 33008KT 13/M05 A2999 RMK A01 T01311046  RH  029%=      5-min Rain = 0
KHO1 140127Z 33008KT 13/M05 A2999 RMK A01 T01311049  RH  028%=      5-min Rain = 0
KHO1 140128Z 32008KT 13/M05 A2999 RMK A01 T01331048  RH  028%=      5-min Rain = 0
KHO1 140129Z 32008KT 13/M05 A2999 RMK A01 T01331045  RH  029%=      5-min Rain = 0
KHO1 140130Z 31007KT 13/M05 A2999 RMK A01 T01311045  RH  029%=      5-min Rain = 0
KHO1 140131Z 30006KT 13/M04 A2999 RMK A01 T01291044  RH  030%=      5-min Rain = 0
KHO1 140132Z 30006KT 13/M04 A2999 RMK A01 T01271044  RH  030%=      5-min Rain = 0
KHO1 140133Z 29006KT 13/M04 A2999 RMK A01 T01261044  RH  030%=      5-min Rain = 0
KHO1 140134Z 29006KT 12/M04 A2999 RMK A01 T01241042  RH  031%=      5-min Rain = 0
KHO1 140135Z 29007KT 12/M04 A2999 RMK A01 T01201042  RH  032%=      5-min Rain = 0
KHO1 140136Z 30009KT 12/M04 A30 RMK A01 T01171042  RH  033%=      5-min Rain = 0
KHO1 140137Z 30009KT 11/M04 A30 RMK A01 T01141041  RH  033%=      5-min Rain = 0
KHO1 140138Z 31008KT 11/M04 A30 RMK A01 T01121040  RH  034%=      5-min Rain = 0
KHO1 140139Z 32008KT 11/M04 A30 RMK A01 T01101041  RH  034%=      5-min Rain = 0
KHO1 140140Z 33007KT 11/M04 A30 RMK A01 T01101041  RH  034%=      5-min Rain = 0
KHO1 140141Z 33007KT 11/M04 A30 RMK A01 T01101041  RH  034%=      5-min Rain = 0
KHO1 140142Z 33008KT 11/M04 A30 RMK A01 T01101042  RH  034%=      5-min Rain = 0
KHO1 140143Z 33007KT 11/M04 A30 RMK A01 T01101041  RH  034%=      5-min Rain = 0
KHO1 140144Z 32008KT 11/M04 A30 RMK A01 T01101042  RH  034%=      5-min Rain = 0
KHO1 140145Z 33008KT 11/M04 A30 RMK A01 T01131043  RH  033%=      5-min Rain = 0
KHO1 140146Z 33007KT 11/M04 A30 RMK A01 T01141043  RH  033%=      5-min Rain = 0
KHO1 140147Z 33008KT 12/M04 A30 RMK A01 T01161044  RH  032%=      5-min Rain = 0
KHO1 140148Z 33008KT 12/M05 A30 RMK A01 T01181045  RH  032%=      5-min Rain = 0
KHO1 140149Z 32008KT 12/M05 A30 RMK A01 T01191045  RH  031%=      5-min Rain = 0
KHO1 140150Z 32008KT 12/M05 A30 RMK A01 T01211045  RH  031%=      5-min Rain = 0
KHO1 140151Z 32008KT 12/M05 A30 RMK A01 T01211045  RH  031%=      5-min Rain = 0
KHO1 140152Z 32007KT 12/M05 A3001 RMK A01 T01221046  RH  031%=      5-min Rain = 0
KHO1 140153Z 31006KT 12/M05 A3001 RMK A01 T01231045  RH  031%=      5-min Rain = 0
KHO1 140154Z 31006KT 12/M05 A3001 RMK A01 T01231045  RH  031%=      5-min Rain = 0
KHO1 140155Z 30006KT 12/M05 A3001 RMK A01 T01231046  RH  031%=      5-min Rain = 0
KHO1 140156Z 30006KT 12/M05 A3001 RMK A01 T01231047  RH  030%=      5-min Rain = 0
KHO1 140157Z 29006KT 12/M05 A3001 RMK A01 T01241048  RH  030%=      5-min Rain = 0
KHO1 140158Z 29006KT 13/M05 A3001 RMK A01 T01251047  RH  030%=      5-min Rain = 0
KHO1 140159Z 28006KT 13/M05 A3001 RMK A01 T01251048  RH  030%=      5-min Rain = 0
KHO1 140200Z 28006KT 13/M05 A3001 RMK A01 T01261048  RH  029%=      5-min Rain = 0
KHO1 140201Z 28005KT 13/M05 A3002 RMK A01 T01261048  RH  029%=      5-min Rain = 0
KHO1 140202Z 28005KT 13/M05 A3002 RMK A01 T01261047  RH  030%=      5-min Rain = 0
KHO1 140203Z 28005KT 13/M05 A3002 RMK A01 T01251048  RH  030%=      5-min Rain = 0
KHO1 140204Z 28006KT 12/M05 A3002 RMK A01 T01241047  RH  030%=      5-min Rain = 0
KHO1 140205Z 29006KT 12/M05 A3002 RMK A01 T01241048  RH  030%=      5-min Rain = 0
KHO1 140206Z 29006KT 12/M05 A3002 RMK A01 T01241048  RH  030%=      5-min Rain = 0
KHO1 140207Z 29006KT 13/M05 A3002 RMK A01 T01251049  RH  029%=      5-min Rain = 0
KHO1 140208Z 30006KT 13/M05 A3002 RMK A01 T01251049  RH  029%=      5-min Rain = 0
KHO1 140209Z 30006KT 13/M05 A3002 RMK A01 T01261049  RH  029%=      5-min Rain = 0
KHO1 140210Z 30007KT 13/M05 A3002 RMK A01 T01261049  RH  029%=      5-min Rain = 0
KHO1 140211Z 31007KT 13/M05 A3002 RMK A01 T01261049  RH  029%=      5-min Rain = 0
KHO1 140212Z 31007KT 13/M05 A3002 RMK A01 T01261049  RH  029%=      5-min Rain = 0
KHO1 140213Z 31007KT 13/M05 A3002 RMK A01 T01251048  RH  029%=      5-min Rain = 0
KHO1 140214Z 31007KT 13/M05 A3002 RMK A01 T01251050  RH  029%=      5-min Rain = 0
KHO1 140215Z 32008KT 13/M05 A3002 RMK A01 T01261052  RH  029%=      5-min Rain = 0
KHO1 140216Z 32007KT 13/M05 A3002 RMK A01 T01281051  RH  028%=      5-min Rain = 0
KHO1 140217Z 32008KT 13/M05 A3002 RMK A01 T01301052  RH  028%=      5-min Rain = 0
KHO1 140218Z 32008KT 13/M05 A3002 RMK A01 T01311052  RH  028%=      5-min Rain = 0
KHO1 140219Z 32007KT 13/M05 A3002 RMK A01 T01311052  RH  028%=      5-min Rain = 0
KHO1 140220Z 32008KT 13/M05 A3002 RMK A01 T01321053  RH  027%=      5-min Rain = 0
KHO1 140221Z 32008KT 13/M05 A3002 RMK A01 T01321052  RH  027%=      5-min Rain = 0
KHO1 140222Z 32007KT 13/M05 A3002 RMK A01 T01321053  RH  027%=      5-min Rain = 0
KHO1 140223Z 32008KT 13/M05 A3001 RMK A01 T01321053  RH  027%=      5-min Rain = 0
KHO1 140224Z 32007KT 13/M05 A3001 RMK A01 T01311053  RH  027%=      5-min Rain = 0
KHO1 140225Z 31007KT 13/M05 A3001 RMK A01 T01311053  RH  027%=      5-min Rain = 0
KHO1 140226Z 31007KT 13/M05 A3001 RMK A01 T01301053  RH  028%=      5-min Rain = 0
KHO1 140227Z 32008KT 13/M05 A3001 RMK A01 T01301054  RH  028%=      5-min Rain = 0
KHO1 140228Z 32007KT 13/M05 A3001 RMK A01 T01291053  RH  028%=      5-min Rain = 0
KHO1 140229Z 31008KT 13/M05 A3001 RMK A01 T01291053  RH  028%=      5-min Rain = 0
KHO1 140230Z 31008KT 13/M05 A3001 RMK A01 T01281054  RH  028%=      5-min Rain = 0
KHO1 140231Z 32007KT 13/M05 A3001 RMK A01 T01281053  RH  028%=      5-min Rain = 0
KHO1 140232Z 32006KT 13/M05 A3001 RMK A01 T01281053  RH  028%=      5-min Rain = 0
KHO1 140233Z 32006KT 13/M05 A3001 RMK A01 T01271054  RH  028%=      5-min Rain = 0
KHO1 140234Z 32007KT 13/M05 A3001 RMK A01 T01271054  RH  028%=      5-min Rain = 0
KHO1 140235Z 32006KT 13/M05 A3001 RMK A01 T01271053  RH  028%=      5-min Rain = 0
KHO1 140236Z 32006KT 13/M05 A3001 RMK A01 T01261052  RH  028%=      5-min Rain = 0
KHO1 140237Z 32006KT 13/M05 A3001 RMK A01 T01261052  RH  028%=      5-min Rain = 0
KHO1 140238Z 32006KT 13/M05 A3001 RMK A01 T01251053  RH  028%=      5-min Rain = 0
KHO1 140239Z 32006KT 13/M05 A3001 RMK A01 T01251053  RH  028%=      5-min Rain = 0
KHO1 140240Z 32006KT 13/M05 A3001 RMK A01 T01251053  RH  029%=      5-min Rain = 0
KHO1 140241Z 31006KT 13/M05 A3001 RMK A01 T01251053  RH  029%=      5-min Rain = 0
KHO1 140242Z 31006KT 12/M05 A3001 RMK A01 T01241052  RH  029%=      5-min Rain = 0
KHO1 140243Z 31006KT 12/M05 A3001 RMK A01 T01231052  RH  029%=      5-min Rain = 0
KHO1 140244Z 31006KT 12/M05 A3001 RMK A01 T01231053  RH  029%=      5-min Rain = 0
KHO1 140245Z 31006KT 12/M05 A3001 RMK A01 T01231053  RH  029%=      5-min Rain = 0
KHO1 140246Z 31006KT 12/M05 A3001 RMK A01 T01231052  RH  029%=      5-min Rain = 0
KHO1 140247Z 31006KT 12/M05 A3001 RMK A01 T01221053  RH  029%=      5-min Rain = 0
KHO1 140248Z 31006KT 12/M05 A3001 RMK A01 T01221054  RH  029%=      5-min Rain = 0
KHO1 140249Z 31005KT 12/M05 A3001 RMK A01 T01221054  RH  029%=      5-min Rain = 0
KHO1 140250Z 31005KT 12/M05 A3001 RMK A01 T01221054  RH  029%=      5-min Rain = 0
KHO1 140251Z 31005KT 12/M05 A3001 RMK A01 T01211054  RH  029%=      5-min Rain = 0
KHO1 140252Z 31005KT 12/M05 A3001 RMK A01 T01211054  RH  029%=      5-min Rain = 0
KHO1 140253Z 31005KT 12/M06 A3001 RMK A01 T01201055  RH  029%=      5-min Rain = 0
KHO1 140254Z 30005KT 12/M06 A3001 RMK A01 T01201055  RH  029%=      5-min Rain = 0
KHO1 140255Z 30006KT 12/M06 A3001 RMK A01 T01201056  RH  029%=      5-min Rain = 0
KHO1 140256Z 30006KT 12/M06 A3001 RMK A01 T01191056  RH  029%=      5-min Rain = 0
KHO1 140257Z 30005KT 12/M06 A3001 RMK A01 T01191055  RH  029%=      5-min Rain = 0
KHO1 140258Z 30005KT 12/M06 A30 RMK A01 T01181055  RH  029%=      5-min Rain = 0
KHO1 140259Z 30005KT 12/M06 A30 RMK A01 T01181055  RH  029%=      5-min Rain = 0
KHO1 140300Z 30005KT 12/M06 A30 RMK A01 T01181055  RH  029%=      5-min Rain = 0
KHO1 140301Z 31005KT 12/M06 A30 RMK A01 T01171055  RH  030%=      5-min Rain = 0
KHO1 140302Z 31006KT 12/M05 A30 RMK A01 T01161054  RH  030%=      5-min Rain = 0
KHO1 140303Z 31005KT 12/M05 A30 RMK A01 T01151054  RH  030%=      5-min Rain = 0
KHO1 140304Z 31005KT 11/M05 A30 RMK A01 T01141054  RH  030%=      5-min Rain = 0
KHO1 140305Z 31005KT 11/M05 A30 RMK A01 T01141054  RH  030%=      5-min Rain = 0
KHO1 140306Z 31005KT 11/M05 A30 RMK A01 T01131053  RH  031%=      5-min Rain = 0
KHO1 140307Z 31005KT 11/M05 A3001 RMK A01 T01121052  RH  031%=      5-min Rain = 0
KHO1 140308Z 31005KT 11/M05 A3001 RMK A01 T01111053  RH  031%=      5-min Rain = 0
KHO1 140309Z 31006KT 11/M05 A3001 RMK A01 T01101053  RH  031%=      5-min Rain = 0
KHO1 140310Z 31006KT 11/M05 A3001 RMK A01 T01101053  RH  031%=      5-min Rain = 0
KHO1 140311Z 31005KT 11/M05 A3001 RMK A01 T01101053  RH  031%=      5-min Rain = 0
KHO1 140312Z 32005KT 11/M05 A3001 RMK A01 T01101054  RH  031%=      5-min Rain = 0
KHO1 140313Z 32005KT 11/M05 A30 RMK A01 T01101054  RH  031%=      5-min Rain = 0
KHO1 140314Z 32005KT 11/M06 A30 RMK A01 T01111055  RH  031%=      5-min Rain = 0
KHO1 140315Z 32006KT 11/M06 A30 RMK A01 T01121055  RH  031%=      5-min Rain = 0
KHO1 140316Z 33006KT 11/M06 A30 RMK A01 T01121055  RH  030%=      5-min Rain = 0
KHO1 140317Z 32006KT 11/M06 A30 RMK A01 T01121056  RH  030%=      5-min Rain = 0
KHO1 140318Z 33006KT 11/M06 A30 RMK A01 T01121056  RH  030%=      5-min Rain = 0
KHO1 140319Z 33006KT 11/M06 A30 RMK A01 T01121055  RH  030%=      5-min Rain = 0
KHO1 140320Z 32006KT 11/M06 A30 RMK A01 T01121055  RH  031%=      5-min Rain = 0
KHO1 140321Z 32006KT 11/M06 A30 RMK A01 T01111055  RH  031%=      5-min Rain = 0
KHO1 140322Z 32006KT 11/M06 A30 RMK A01 T01111055  RH  031%=      5-min Rain = 0
KHO1 140323Z 32006KT 11/M05 A30 RMK A01 T01111054  RH  031%=      5-min Rain = 0
KHO1 140324Z 33007KT 11/M05 A30 RMK A01 T01101054  RH  031%=      5-min Rain = 0
KHO1 140325Z 32007KT 11/M05 A30 RMK A01 T01101054  RH  031%=      5-min Rain = 0
KHO1 140326Z 32007KT 11/M05 A30 RMK A01 T01091054  RH  031%=      5-min Rain = 0
KHO1 140327Z 32006KT 11/M05 A30 RMK A01 T01091053  RH  032%=      5-min Rain = 0
KHO1 140328Z 32006KT 11/M05 A30 RMK A01 T01081053  RH  032%=      5-min Rain = 0
KHO1 140329Z 32006KT 11/M05 A30 RMK A01 T01071052  RH  032%=      5-min Rain = 0
KHO1 140330Z 31005KT 11/M05 A30 RMK A01 T01061051  RH  033%=      5-min Rain = 0
KHO1 140331Z 31006KT 11/M05 A30 RMK A01 T01051051  RH  033%=      5-min Rain = 0
KHO1 140332Z 31006KT 10/M05 A30 RMK A01 T01031051  RH  033%=      5-min Rain = 0
KHO1 140333Z 31006KT 10/M05 A30 RMK A01 T01021052  RH  033%=      5-min Rain = 0
KHO1 140334Z 30006KT 10/M05 A30 RMK A01 T01011052  RH  034%=      5-min Rain = 0
KHO1 140335Z 30006KT 10/M05 A30 RMK A01 T01011053  RH  033%=      5-min Rain = 0
KHO1 140336Z 30006KT 10/M05 A30 RMK A01 T01011054  RH  033%=      5-min Rain = 0
KHO1 140337Z 30005KT 10/M05 A30 RMK A01 T01001053  RH  033%=      5-min Rain = 0
KHO1 140338Z 30006KT 10/M05 A30 RMK A01 T00991053  RH  034%=      5-min Rain = 0
KHO1 140339Z 30005KT 10/M05 A3001 RMK A01 T00981052  RH  034%=      5-min Rain = 0
KHO1 140340Z 30004KT 10/M05 A30 RMK A01 T00971052  RH  034%=      5-min Rain = 0
KHO1 140341Z 31004KT 10/M05 A30 RMK A01 T00961052  RH  035%=      5-min Rain = 0
KHO1 140342Z 31004KT 10/M05 A30 RMK A01 T00951051  RH  035%=      5-min Rain = 0
KHO1 140343Z 31004KT 09/M05 A30 RMK A01 T00941051  RH  036%=      5-min Rain = 0
KHO1 140344Z 31004KT 09/M05 A30 RMK A01 T00941050  RH  036%=      5-min Rain = 0
KHO1 140345Z 31004KT 09/M05 A30 RMK A01 T00931050  RH  036%=      5-min Rain = 0
KHO1 140346Z 31005KT 09/M05 A30 RMK A01 T00931051  RH  036%=      5-min Rain = 0
KHO1 140347Z 31004KT 09/M05 A30 RMK A01 T00931051  RH  036%=      5-min Rain = 0
KHO1 140348Z 31005KT 09/M05 A30 RMK A01 T00931051  RH  036%=      5-min Rain = 0
KHO1 140349Z 31004KT 09/M05 A30 RMK A01 T00931051  RH  036%=      5-min Rain = 0
KHO1 140350Z 31005KT 09/M05 A30 RMK A01 T00921051  RH  036%=      5-min Rain = 0
KHO1 140351Z 31005KT 09/M05 A30 RMK A01 T00921050  RH  036%=      5-min Rain = 0
KHO1 140352Z 32005KT 09/M05 A30 RMK A01 T00921050  RH  036%=      5-min Rain = 0
KHO1 140353Z 32005KT 09/M05 A30 RMK A01 T00921050  RH  036%=      5-min Rain = 0
KHO1 140354Z 31005KT 09/M05 A30 RMK A01 T00921050  RH  036%=      5-min Rain = 0
KHO1 140355Z 31005KT 09/M05 A30 RMK A01 T00921051  RH  036%=      5-min Rain = 0
KHO1 140356Z 32005KT 09/M05 A30 RMK A01 T00921050  RH  036%=      5-min Rain = 0
KHO1 140357Z 32005KT 09/M05 A30 RMK A01 T00921050  RH  036%=      5-min Rain = 0
KHO1 140358Z 32005KT 09/M05 A30 RMK A01 T00921051  RH  036%=      5-min Rain = 0
KHO1 140359Z 31006KT 09/M05 A30 RMK A01 T00931052  RH  036%=      5-min Rain = 0
KHO1 140400Z 32005KT 09/M05 A30 RMK A01 T00931051  RH  036%=      5-min Rain = 0
KHO1 140401Z 31006KT 09/M05 A30 RMK A01 T00931052  RH  035%=      5-min Rain = 0
KHO1 140402Z 32006KT 09/M05 A2999 RMK A01 T00941052  RH  035%=      5-min Rain = 0
KHO1 140403Z 32006KT 09/M05 A2999 RMK A01 T00941052  RH  035%=      5-min Rain = 0
KHO1 140404Z 32006KT 10/M05 A2999 RMK A01 T00951053  RH  035%=      5-min Rain = 0
KHO1 140405Z 31006KT 10/M05 A2999 RMK A01 T00951052  RH  035%=      5-min Rain = 0
KHO1 140406Z 31006KT 09/M05 A2999 RMK A01 T00941052  RH  035%=      5-min Rain = 0
KHO1 140407Z 31006KT 09/M05 A2999 RMK A01 T00941052  RH  035%=      5-min Rain = 0
KHO1 140408Z 32006KT 09/M05 A2999 RMK A01 T00941051  RH  036%=      5-min Rain = 0
KHO1 140409Z 31006KT 09/M05 A2999 RMK A01 T00931051  RH  036%=      5-min Rain = 0
KHO1 140410Z 32007KT 09/M05 A2999 RMK A01 T00931052  RH  036%=      5-min Rain = 0
KHO1 140411Z 32006KT 09/M05 A2999 RMK A01 T00931052  RH  036%=      5-min Rain = 0
KHO1 140412Z 32006KT 09/M05 A2999 RMK A01 T00931052  RH  036%=      5-min Rain = 0
KHO1 140413Z 32006KT 09/M05 A2999 RMK A01 T00931052  RH  036%=      5-min Rain = 0
KHO1 140414Z 32006KT 09/M05 A30 RMK A01 T00931052  RH  035%=      5-min Rain = 0
KHO1 140415Z 32006KT 09/M05 A2999 RMK A01 T00941053  RH  035%=      5-min Rain = 0
KHO1 140416Z 32006KT 09/M05 A2999 RMK A01 T00941052  RH  035%=      5-min Rain = 0
KHO1 140417Z 32006KT 09/M05 A30 RMK A01 T00941052  RH  035%=      5-min Rain = 0
KHO1 140418Z 32006KT 09/M05 A30 RMK A01 T00931051  RH  036%=      5-min Rain = 0
KHO1 140419Z 31006KT 09/M05 A30 RMK A01 T00931051  RH  036%=      5-min Rain = 0
KHO1 140420Z 32006KT 09/M05 A30 RMK A01 T00921051  RH  036%=      5-min Rain = 0
KHO1 140421Z 32006KT 09/M05 A30 RMK A01 T00911050  RH  037%=      5-min Rain = 0
KHO1 140422Z 31006KT 09/M05 A30 RMK A01 T00901050  RH  037%=      5-min Rain = 0
KHO1 140423Z 31006KT 09/M05 A30 RMK A01 T00891049  RH  037%=      5-min Rain = 0
KHO1 140424Z 31007KT 09/M05 A30 RMK A01 T00881048  RH  038%=      5-min Rain = 0
KHO1 140425Z 31006KT 09/M05 A30 RMK A01 T00871049  RH  038%=      5-min Rain = 0
KHO1 140426Z 31006KT 09/M05 A30 RMK A01 T00871049  RH  038%=      5-min Rain = 0
KHO1 140427Z 31006KT 09/M05 A30 RMK A01 T00871049  RH  038%=      5-min Rain = 0
KHO1 140428Z 31005KT 09/M05 A30 RMK A01 T00871049  RH  038%=      5-min Rain = 0
KHO1 140429Z 31006KT 09/M05 A30 RMK A01 T00861049  RH  038%=      5-min Rain = 0
KHO1 140430Z 32006KT 09/M05 A30 RMK A01 T00861049  RH  038%=      5-min Rain = 0
KHO1 140431Z 31006KT 09/M05 A30 RMK A01 T00861049  RH  038%=      5-min Rain = 0
KHO1 140432Z 31006KT 09/M05 A30 RMK A01 T00861049  RH  038%=      5-min Rain = 0
KHO1 140433Z 31006KT 09/M05 A30 RMK A01 T00861049  RH  038%=      5-min Rain = 0
KHO1 140434Z 31006KT 09/M05 A30 RMK A01 T00851049  RH  038%=      5-min Rain = 0
KHO1 140435Z 31006KT 09/M05 A30 RMK A01 T00851049  RH  038%=      5-min Rain = 0
KHO1 140436Z 31005KT 09/M05 A30 RMK A01 T00851049  RH  038%=      5-min Rain = 0
KHO1 140437Z 31005KT 08/M05 A30 RMK A01 T00841049  RH  039%=      5-min Rain = 0
KHO1 140438Z 31005KT 08/M05 A30 RMK A01 T00841048  RH  039%=      5-min Rain = 0
KHO1 140439Z 32005KT 08/M05 A30 RMK A01 T00831047  RH  039%=      5-min Rain = 0
KHO1 140440Z 32006KT 08/M05 A30 RMK A01 T00821048  RH  039%=      5-min Rain = 0
KHO1 140441Z 32006KT 08/M05 A30 RMK A01 T00831050  RH  039%=      5-min Rain = 0
KHO1 140442Z 32006KT 08/M05 A2999 RMK A01 T00841050  RH  038%=      5-min Rain = 0
KHO1 140443Z 32006KT 08/M05 A2999 RMK A01 T00841049  RH  039%=      5-min Rain = 0
KHO1 140444Z 32006KT 08/M05 A2999 RMK A01 T00841048  RH  039%=      5-min Rain = 0
KHO1 140445Z 31005KT 08/M05 A2999 RMK A01 T00831048  RH  039%=      5-min Rain = 0
KHO1 140446Z 31005KT 08/M05 A2999 RMK A01 T00821048  RH  040%=      5-min Rain = 0
KHO1 140447Z 31005KT 08/M05 A2999 RMK A01 T00811047  RH  040%=      5-min Rain = 0
KHO1 140448Z 31005KT 08/M05 A2999 RMK A01 T00811047  RH  040%=      5-min Rain = 0
KHO1 140449Z 30005KT 08/M05 A2999 RMK A01 T00801047  RH  040%=      5-min Rain = 0
KHO1 140450Z 29004KT 08/M05 A2999 RMK A01 T00801047  RH  040%=      5-min Rain = 0
KHO1 140451Z 28004KT 08/M05 A2999 RMK A01 T00791046  RH  041%=      5-min Rain = 0
KHO1 140452Z 27004KT 08/M05 A2999 RMK A01 T00791046  RH  041%=      5-min Rain = 0
KHO1 140453Z 25004KT 08/M05 A2999 RMK A01 T00781046  RH  041%=      5-min Rain = 0
KHO1 140454Z 25005KT 07/M05 A2999 RMK A01 T00741045  RH  042%=      5-min Rain = 0
KHO1 140455Z 23005KT 07/M04 A2999 RMK A01 T00711044  RH  044%=      5-min Rain = 0
KHO1 140456Z 23006KT 07/M04 A2999 RMK A01 T00671043  RH  045%=      5-min Rain = 0
KHO1 140457Z 21007KT 06/M04 A2999 RMK A01 T00641041  RH  047%=      5-min Rain = 0
KHO1 140458Z 21007KT 06/M04 A2999 RMK A01 T00621039  RH  048%=      5-min Rain = 0
KHO1 140459Z 22007KT 06/M04 A2999 RMK A01 T00601037  RH  050%=      5-min Rain = 0
KHO1 140500Z 22007KT 06/M04 A2999 RMK A01 T00581035  RH  051%=      5-min Rain = 0
KHO1 140501Z 23007KT 06/M03 A2999 RMK A01 T00571034  RH  052%=      5-min Rain = 0
KHO1 140502Z 23008KT 06/M03 A2999 RMK A01 T00581034  RH  051%=      5-min Rain = 0
KHO1 140503Z 24007KT 06/M03 A30 RMK A01 T00591034  RH  051%=      5-min Rain = 0
KHO1 140504Z 24006KT 06/M03 A30 RMK A01 T00601034  RH  051%=      5-min Rain = 0
KHO1 140505Z 25007KT 06/M03 A30 RMK A01 T00601034  RH  051%=      5-min Rain = 0
KHO1 140506Z 25006KT 06/M03 A30 RMK A01 T00601034  RH  051%=      5-min Rain = 0
KHO1 140507Z 26006KT 06/M03 A30 RMK A01 T00591034  RH  051%=      5-min Rain = 0
KHO1 140508Z 26006KT 06/M03 A30 RMK A01 T00591034  RH  051%=      5-min Rain = 0
KHO1 140509Z 26006KT 06/M04 A30 RMK A01 T00591035  RH  051%=      5-min Rain = 0
KHO1 140510Z 26007KT 06/M04 A30 RMK A01 T00611035  RH  050%=      5-min Rain = 0
KHO1 140511Z 26007KT 06/M04 A30 RMK A01 T00621035  RH  050%=      5-min Rain = 0
KHO1 140512Z 26007KT 06/M04 A30 RMK A01 T00631035  RH  049%=      5-min Rain = 0
KHO1 140513Z 26007KT 06/M04 A30 RMK A01 T00631035  RH  049%=      5-min Rain = 0
KHO1 140514Z 26008KT 06/M04 A30 RMK A01 T00631036  RH  049%=      5-min Rain = 0
KHO1 140515Z 26008KT 06/M04 A30 RMK A01 T00641036  RH  049%=      5-min Rain = 0
KHO1 140516Z 26007KT 07/M04 A2999 RMK A01 T00651037  RH  048%=      5-min Rain = 0
KHO1 140517Z 26007KT 07/M04 A2999 RMK A01 T00671038  RH  047%=      5-min Rain = 0
KHO1 140518Z 26008KT 07/M04 A2999 RMK A01 T00681038  RH  047%=      5-min Rain = 0
KHO1 140519Z 26007KT 07/M04 A2999 RMK A01 T00691038  RH  046%=      5-min Rain = 0
KHO1 140520Z 28006KT 07/M04 A2999 RMK A01 T00691038  RH  047%=      5-min Rain = 0
KHO1 140521Z 29004KT 07/M04 A2999 RMK A01 T00681037  RH  047%=      5-min Rain = 0
KHO1 140522Z 28005KT 07/M04 A2999 RMK A01 T00671037  RH  047%=      5-min Rain = 0
KHO1 140523Z 28005KT 07/M04 A2999 RMK A01 T00661038  RH  047%=      5-min Rain = 0
KHO1 140524Z 27006KT 07/M04 A2999 RMK A01 T00671038  RH  047%=      5-min Rain = 0
KHO1 140525Z 28006KT 07/M04 A2999 RMK A01 T00691039  RH  046%=      5-min Rain = 0
KHO1 140526Z 28006KT 07/M04 A2999 RMK A01 T00711039  RH  045%=      5-min Rain = 0
KHO1 140527Z 27006KT 07/M04 A2999 RMK A01 T00721040  RH  045%=      5-min Rain = 0
KHO1 140528Z 26007KT 07/M04 A2999 RMK A01 T00731040  RH  044%=      5-min Rain = 0
KHO1 140529Z 26007KT 07/M04 A2999 RMK A01 T00741040  RH  044%=      5-min Rain = 0
KHO1 140530Z 26007KT 07/M04 A2999 RMK A01 T00741041  RH  044%=      5-min Rain = 0
KHO1 140531Z 26008KT 08/M04 A2999 RMK A01 T00751042  RH  043%=      5-min Rain = 0
KHO1 140532Z 26007KT 08/M04 A2999 RMK A01 T00761042  RH  043%=      5-min Rain = 0
KHO1 140533Z 26006KT 08/M04 A2999 RMK A01 T00761043  RH  043%=      5-min Rain = 0
KHO1 140534Z 26006KT 08/M04 A2999 RMK A01 T00771043  RH  042%=      5-min Rain = 0
KHO1 140535Z 26006KT 08/M04 A2999 RMK A01 T00771043  RH  042%=      5-min Rain = 0
KHO1 140536Z 26006KT 08/M04 A2999 RMK A01 T00771044  RH  042%=      5-min Rain = 0
KHO1 140537Z 26006KT 08/M04 A2999 RMK A01 T00781044  RH  042%=      5-min Rain = 0
KHO1 140538Z 26006KT 08/M04 A2999 RMK A01 T00781044  RH  042%=      5-min Rain = 0
KHO1 140539Z 26006KT 08/M04 A2999 RMK A01 T00781044  RH  042%=      5-min Rain = 0
KHO1 140540Z 26006KT 08/M05 A2999 RMK A01 T00781045  RH  042%=      5-min Rain = 0
KHO1 140541Z 26006KT 08/M05 A2999 RMK A01 T00781045  RH  041%=      5-min Rain = 0
KHO1 140542Z 26006KT 08/M04 A2999 RMK A01 T00781044  RH  042%=      5-min Rain = 0
KHO1 140543Z 26006KT 08/M04 A2999 RMK A01 T00781044  RH  042%=      5-min Rain = 0
KHO1 140544Z 26005KT 08/M04 A2999 RMK A01 T00771044  RH  042%=      5-min Rain = 0
KHO1 140545Z 26006KT 08/M04 A2999 RMK A01 T00771044  RH  042%=      5-min Rain = 0
KHO1 140546Z 26005KT 08/M04 A2999 RMK A01 T00761044  RH  042%=      5-min Rain = 0
KHO1 140547Z 26005KT 08/M04 A2999 RMK A01 T00761043  RH  043%=      5-min Rain = 0
KHO1 140548Z 25005KT 07/M04 A2999 RMK A01 T00741042  RH  043%=      5-min Rain = 0
KHO1 140549Z 25006KT 07/M04 A2999 RMK A01 T00731041  RH  044%=      5-min Rain = 0
KHO1 140550Z 24007KT 07/M04 A2999 RMK A01 T00711041  RH  045%=      5-min Rain = 0
KHO1 140551Z 24007KT 07/M04 A2999 RMK A01 T00691041  RH  045%=      5-min Rain = 0
KHO1 140552Z 24007KT 07/M04 A2999 RMK A01 T00681041  RH  046%=      5-min Rain = 0
KHO1 140553Z 24007KT 07/M04 A2999 RMK A01 T00671040  RH  046%=      5-min Rain = 0
KHO1 140554Z 24007KT 07/M04 A2999 RMK A01 T00661040  RH  047%=      5-min Rain = 0
KHO1 140555Z 24007KT 07/M04 A2999 RMK A01 T00651039  RH  047%=      5-min Rain = 0
KHO1 140556Z 24007KT 06/M04 A2999 RMK A01 T00641038  RH  048%=      5-min Rain = 0
KHO1 140557Z 24007KT 06/M04 A2999 RMK A01 T00631038  RH  049%=      5-min Rain = 0
KHO1 140558Z 24006KT 06/M04 A2999 RMK A01 T00621037  RH  049%=      5-min Rain = 0
KHO1 140559Z 25006KT 06/M04 A2999 RMK A01 T00611037  RH  049%=      5-min Rain = 0

Page generated in 0.0641 seconds.